<?xml version="1.0" encoding="UTF-8" standalone="no" ?>
<gpx xmlns="http://www.topografix.com/GPX/1/1" xmlns:xsi="http://www.w3.org/2001/XMLSchema-instance" xsi:schemaLocation="http://www.topografix.com/GPX/1/1 http://www.topografix.com/GPX/1/1/gpx.xsd" version="1.1" creator="VisuGPX - https://www.visugpx.com">
  <metadata>
    <name>pinedes du lez 05-2022 40km 600m</name>
  </metadata>
  <trk>
    <name><![CDATA[pinedes du lez 05-2022 40km 600m_1]]></name>
    <extensions>
      <line xmlns="http://www.topografix.com/GPX/gpx_style/0/2">
        <color>0000FF</color>
        <width>4</width>
      </line>
    </extensions>
    <trkseg>
      <trkpt lat="43.66724" lon="3.85774">
        <ele>75.9</ele>
        <time>2022-05-15T05:58:17Z</time>
      </trkpt>
      <trkpt lat="43.66735" lon="3.85729">
        <ele>75.5</ele>
        <time>2022-05-15T05:58:27Z</time>
      </trkpt>
      <trkpt lat="43.66718" lon="3.85741">
        <ele>76.2</ele>
        <time>2022-05-15T05:58:37Z</time>
      </trkpt>
      <trkpt lat="43.66703" lon="3.85765">
        <ele>77.1</ele>
        <time>2022-05-15T05:58:47Z</time>
      </trkpt>
      <trkpt lat="43.66713" lon="3.85795">
        <ele>77.7</ele>
        <time>2022-05-15T05:58:57Z</time>
      </trkpt>
      <trkpt lat="43.66722" lon="3.85829">
        <ele>78.9</ele>
        <time>2022-05-15T05:59:07Z</time>
      </trkpt>
      <trkpt lat="43.66719" lon="3.85852">
        <ele>79.9</ele>
        <time>2022-05-15T05:59:17Z</time>
      </trkpt>
      <trkpt lat="43.66723" lon="3.85883">
        <ele>81.5</ele>
        <time>2022-05-15T05:59:27Z</time>
      </trkpt>
      <trkpt lat="43.66733" lon="3.85915">
        <ele>82.7</ele>
        <time>2022-05-15T05:59:37Z</time>
      </trkpt>
      <trkpt lat="43.66742" lon="3.85946">
        <ele>85</ele>
        <time>2022-05-15T05:59:47Z</time>
      </trkpt>
      <trkpt lat="43.66753" lon="3.85976">
        <ele>86.1</ele>
        <time>2022-05-15T05:59:57Z</time>
      </trkpt>
      <trkpt lat="43.66761" lon="3.86007">
        <ele>89.3</ele>
        <time>2022-05-15T06:00:07Z</time>
      </trkpt>
      <trkpt lat="43.66769" lon="3.86037">
        <ele>92</ele>
        <time>2022-05-15T06:00:17Z</time>
      </trkpt>
      <trkpt lat="43.66774" lon="3.86064">
        <ele>93</ele>
        <time>2022-05-15T06:00:27Z</time>
      </trkpt>
      <trkpt lat="43.66765" lon="3.86089">
        <ele>95.6</ele>
        <time>2022-05-15T06:00:37Z</time>
      </trkpt>
      <trkpt lat="43.66763" lon="3.86113">
        <ele>95</ele>
        <time>2022-05-15T06:00:47Z</time>
      </trkpt>
      <trkpt lat="43.66747" lon="3.86144">
        <ele>93</ele>
        <time>2022-05-15T06:00:57Z</time>
      </trkpt>
      <trkpt lat="43.6673" lon="3.86169">
        <ele>87.7</ele>
        <time>2022-05-15T06:01:07Z</time>
      </trkpt>
      <trkpt lat="43.66722" lon="3.86184">
        <ele>83.4</ele>
        <time>2022-05-15T06:01:17Z</time>
      </trkpt>
      <trkpt lat="43.66723" lon="3.86198">
        <ele>79</ele>
        <time>2022-05-15T06:01:27Z</time>
      </trkpt>
      <trkpt lat="43.66716" lon="3.8622">
        <ele>72.2</ele>
        <time>2022-05-15T06:01:37Z</time>
      </trkpt>
      <trkpt lat="43.66702" lon="3.86233">
        <ele>67.5</ele>
        <time>2022-05-15T06:02:27Z</time>
      </trkpt>
      <trkpt lat="43.66683" lon="3.86229">
        <ele>67.1</ele>
        <time>2022-05-15T06:02:47Z</time>
      </trkpt>
      <trkpt lat="43.66668" lon="3.86227">
        <ele>66.6</ele>
        <time>2022-05-15T06:03:27Z</time>
      </trkpt>
      <trkpt lat="43.66647" lon="3.86217">
        <ele>68.3</ele>
        <time>2022-05-15T06:03:47Z</time>
      </trkpt>
      <trkpt lat="43.66636" lon="3.8621">
        <ele>69.9</ele>
        <time>2022-05-15T06:03:57Z</time>
      </trkpt>
      <trkpt lat="43.6662" lon="3.86201">
        <ele>71.8</ele>
        <time>2022-05-15T06:04:07Z</time>
      </trkpt>
      <trkpt lat="43.66601" lon="3.862">
        <ele>70.6</ele>
        <time>2022-05-15T06:04:17Z</time>
      </trkpt>
      <trkpt lat="43.66571" lon="3.86199">
        <ele>66.9</ele>
        <time>2022-05-15T06:04:27Z</time>
      </trkpt>
      <trkpt lat="43.66553" lon="3.86178">
        <ele>66.2</ele>
        <time>2022-05-15T06:04:37Z</time>
      </trkpt>
      <trkpt lat="43.66533" lon="3.86168">
        <ele>63</ele>
        <time>2022-05-15T06:04:47Z</time>
      </trkpt>
      <trkpt lat="43.66531" lon="3.86144">
        <ele>65.2</ele>
        <time>2022-05-15T06:04:57Z</time>
      </trkpt>
      <trkpt lat="43.66524" lon="3.86126">
        <ele>65.8</ele>
        <time>2022-05-15T06:05:07Z</time>
      </trkpt>
      <trkpt lat="43.66507" lon="3.86102">
        <ele>65.2</ele>
        <time>2022-05-15T06:05:17Z</time>
      </trkpt>
      <trkpt lat="43.66496" lon="3.86093">
        <ele>64.9</ele>
        <time>2022-05-15T06:05:27Z</time>
      </trkpt>
      <trkpt lat="43.66474" lon="3.86098">
        <ele>63.4</ele>
        <time>2022-05-15T06:05:37Z</time>
      </trkpt>
      <trkpt lat="43.66447" lon="3.86094">
        <ele>61.7</ele>
        <time>2022-05-15T06:05:47Z</time>
      </trkpt>
      <trkpt lat="43.66422" lon="3.86079">
        <ele>61.5</ele>
        <time>2022-05-15T06:05:57Z</time>
      </trkpt>
      <trkpt lat="43.66408" lon="3.8607">
        <ele>61.8</ele>
        <time>2022-05-15T06:06:07Z</time>
      </trkpt>
      <trkpt lat="43.66385" lon="3.86061">
        <ele>60.5</ele>
        <time>2022-05-15T06:06:17Z</time>
      </trkpt>
      <trkpt lat="43.66358" lon="3.86066">
        <ele>56</ele>
        <time>2022-05-15T06:06:27Z</time>
      </trkpt>
      <trkpt lat="43.66335" lon="3.86048">
        <ele>54.4</ele>
        <time>2022-05-15T06:06:37Z</time>
      </trkpt>
      <trkpt lat="43.6629" lon="3.86033">
        <ele>50.1</ele>
        <time>2022-05-15T06:06:47Z</time>
      </trkpt>
      <trkpt lat="43.66249" lon="3.86027">
        <ele>52.1</ele>
        <time>2022-05-15T06:06:57Z</time>
      </trkpt>
      <trkpt lat="43.66224" lon="3.86024">
        <ele>53.3</ele>
        <time>2022-05-15T06:07:07Z</time>
      </trkpt>
      <trkpt lat="43.66201" lon="3.86031">
        <ele>53.9</ele>
        <time>2022-05-15T06:07:17Z</time>
      </trkpt>
      <trkpt lat="43.66176" lon="3.8603">
        <ele>54.5</ele>
        <time>2022-05-15T06:07:27Z</time>
      </trkpt>
      <trkpt lat="43.66151" lon="3.86033">
        <ele>53.3</ele>
        <time>2022-05-15T06:07:37Z</time>
      </trkpt>
      <trkpt lat="43.66118" lon="3.86031">
        <ele>52.6</ele>
        <time>2022-05-15T06:07:47Z</time>
      </trkpt>
      <trkpt lat="43.6608" lon="3.8601">
        <ele>55.3</ele>
        <time>2022-05-15T06:07:57Z</time>
      </trkpt>
      <trkpt lat="43.66046" lon="3.85987">
        <ele>54.9</ele>
        <time>2022-05-15T06:08:07Z</time>
      </trkpt>
      <trkpt lat="43.66018" lon="3.8598">
        <ele>53.1</ele>
        <time>2022-05-15T06:08:57Z</time>
      </trkpt>
      <trkpt lat="43.65976" lon="3.85986">
        <ele>51.6</ele>
        <time>2022-05-15T06:09:17Z</time>
      </trkpt>
      <trkpt lat="43.6592" lon="3.85988">
        <ele>50.2</ele>
        <time>2022-05-15T06:09:27Z</time>
      </trkpt>
      <trkpt lat="43.65877" lon="3.85992">
        <ele>51.3</ele>
        <time>2022-05-15T06:09:37Z</time>
      </trkpt>
      <trkpt lat="43.65831" lon="3.86">
        <ele>52.1</ele>
        <time>2022-05-15T06:09:47Z</time>
      </trkpt>
      <trkpt lat="43.65789" lon="3.86004">
        <ele>52.6</ele>
        <time>2022-05-15T06:09:57Z</time>
      </trkpt>
      <trkpt lat="43.6575" lon="3.86022">
        <ele>51.6</ele>
        <time>2022-05-15T06:10:07Z</time>
      </trkpt>
      <trkpt lat="43.65696" lon="3.86054">
        <ele>50.1</ele>
        <time>2022-05-15T06:10:17Z</time>
      </trkpt>
      <trkpt lat="43.65649" lon="3.86092">
        <ele>48.8</ele>
        <time>2022-05-15T06:10:27Z</time>
      </trkpt>
      <trkpt lat="43.65614" lon="3.86156">
        <ele>47.3</ele>
        <time>2022-05-15T06:10:37Z</time>
      </trkpt>
      <trkpt lat="43.6558" lon="3.8619">
        <ele>47.6</ele>
        <time>2022-05-15T06:10:47Z</time>
      </trkpt>
      <trkpt lat="43.65545" lon="3.86175">
        <ele>50.5</ele>
        <time>2022-05-15T06:10:57Z</time>
      </trkpt>
      <trkpt lat="43.65515" lon="3.86155">
        <ele>52.7</ele>
        <time>2022-05-15T06:11:07Z</time>
      </trkpt>
      <trkpt lat="43.65488" lon="3.86136">
        <ele>54.8</ele>
        <time>2022-05-15T06:11:17Z</time>
      </trkpt>
      <trkpt lat="43.65458" lon="3.8612">
        <ele>57.4</ele>
        <time>2022-05-15T06:11:27Z</time>
      </trkpt>
      <trkpt lat="43.65428" lon="3.86111">
        <ele>58</ele>
        <time>2022-05-15T06:11:37Z</time>
      </trkpt>
      <trkpt lat="43.65405" lon="3.86141">
        <ele>57.6</ele>
        <time>2022-05-15T06:11:47Z</time>
      </trkpt>
      <trkpt lat="43.65368" lon="3.86154">
        <ele>56.4</ele>
        <time>2022-05-15T06:11:57Z</time>
      </trkpt>
      <trkpt lat="43.65344" lon="3.86202">
        <ele>56.7</ele>
        <time>2022-05-15T06:12:07Z</time>
      </trkpt>
      <trkpt lat="43.65327" lon="3.86251">
        <ele>60</ele>
        <time>2022-05-15T06:12:17Z</time>
      </trkpt>
      <trkpt lat="43.65318" lon="3.86302">
        <ele>60.6</ele>
        <time>2022-05-15T06:12:27Z</time>
      </trkpt>
      <trkpt lat="43.65301" lon="3.86353">
        <ele>60.2</ele>
        <time>2022-05-15T06:12:37Z</time>
      </trkpt>
      <trkpt lat="43.65272" lon="3.86391">
        <ele>59.9</ele>
        <time>2022-05-15T06:12:47Z</time>
      </trkpt>
      <trkpt lat="43.6523" lon="3.8642">
        <ele>56</ele>
        <time>2022-05-15T06:12:57Z</time>
      </trkpt>
      <trkpt lat="43.65176" lon="3.86478">
        <ele>47.7</ele>
        <time>2022-05-15T06:13:07Z</time>
      </trkpt>
      <trkpt lat="43.65133" lon="3.86547">
        <ele>43.9</ele>
        <time>2022-05-15T06:13:17Z</time>
      </trkpt>
      <trkpt lat="43.65097" lon="3.86577">
        <ele>44.7</ele>
        <time>2022-05-15T06:13:27Z</time>
      </trkpt>
      <trkpt lat="43.6505" lon="3.86587">
        <ele>43.1</ele>
        <time>2022-05-15T06:13:37Z</time>
      </trkpt>
      <trkpt lat="43.6503" lon="3.86643">
        <ele>43.1</ele>
        <time>2022-05-15T06:13:47Z</time>
      </trkpt>
      <trkpt lat="43.65009" lon="3.86622">
        <ele>39.9</ele>
        <time>2022-05-15T06:13:57Z</time>
      </trkpt>
      <trkpt lat="43.64977" lon="3.86676">
        <ele>38.9</ele>
        <time>2022-05-15T06:14:07Z</time>
      </trkpt>
      <trkpt lat="43.6494" lon="3.86723">
        <ele>38.1</ele>
        <time>2022-05-15T06:14:17Z</time>
      </trkpt>
      <trkpt lat="43.64901" lon="3.86769">
        <ele>38.4</ele>
        <time>2022-05-15T06:14:27Z</time>
      </trkpt>
      <trkpt lat="43.64859" lon="3.86812">
        <ele>37.4</ele>
        <time>2022-05-15T06:14:37Z</time>
      </trkpt>
      <trkpt lat="43.64819" lon="3.86832">
        <ele>37</ele>
        <time>2022-05-15T06:14:47Z</time>
      </trkpt>
      <trkpt lat="43.64794" lon="3.86839">
        <ele>37.3</ele>
        <time>2022-05-15T06:14:57Z</time>
      </trkpt>
      <trkpt lat="43.64779" lon="3.86832">
        <ele>37.3</ele>
        <time>2022-05-15T06:15:07Z</time>
      </trkpt>
      <trkpt lat="43.64755" lon="3.86842">
        <ele>40.3</ele>
        <time>2022-05-15T06:15:17Z</time>
      </trkpt>
      <trkpt lat="43.64727" lon="3.86844">
        <ele>42.8</ele>
        <time>2022-05-15T06:15:27Z</time>
      </trkpt>
      <trkpt lat="43.64697" lon="3.86857">
        <ele>42</ele>
        <time>2022-05-15T06:15:37Z</time>
      </trkpt>
      <trkpt lat="43.64678" lon="3.86919">
        <ele>39</ele>
        <time>2022-05-15T06:15:47Z</time>
      </trkpt>
      <trkpt lat="43.6467" lon="3.86963">
        <ele>39.1</ele>
        <time>2022-05-15T06:15:57Z</time>
      </trkpt>
      <trkpt lat="43.64667" lon="3.87005">
        <ele>38</ele>
        <time>2022-05-15T06:16:07Z</time>
      </trkpt>
      <trkpt lat="43.64699" lon="3.87015">
        <ele>37.1</ele>
        <time>2022-05-15T06:16:17Z</time>
      </trkpt>
      <trkpt lat="43.64731" lon="3.87011">
        <ele>37.6</ele>
        <time>2022-05-15T06:16:27Z</time>
      </trkpt>
      <trkpt lat="43.64766" lon="3.87008">
        <ele>35.7</ele>
        <time>2022-05-15T06:16:37Z</time>
      </trkpt>
      <trkpt lat="43.64772" lon="3.8704">
        <ele>36.1</ele>
        <time>2022-05-15T06:16:47Z</time>
      </trkpt>
      <trkpt lat="43.64769" lon="3.87077">
        <ele>37</ele>
        <time>2022-05-15T06:16:57Z</time>
      </trkpt>
      <trkpt lat="43.64769" lon="3.87117">
        <ele>36.9</ele>
        <time>2022-05-15T06:17:07Z</time>
      </trkpt>
      <trkpt lat="43.64771" lon="3.87165">
        <ele>37</ele>
        <time>2022-05-15T06:17:17Z</time>
      </trkpt>
      <trkpt lat="43.64777" lon="3.87211">
        <ele>37</ele>
        <time>2022-05-15T06:17:27Z</time>
      </trkpt>
      <trkpt lat="43.64784" lon="3.87264">
        <ele>36.8</ele>
        <time>2022-05-15T06:17:37Z</time>
      </trkpt>
      <trkpt lat="43.64786" lon="3.87304">
        <ele>36.7</ele>
        <time>2022-05-15T06:17:47Z</time>
      </trkpt>
      <trkpt lat="43.64785" lon="3.87345">
        <ele>36.6</ele>
        <time>2022-05-15T06:17:57Z</time>
      </trkpt>
      <trkpt lat="43.64803" lon="3.87385">
        <ele>35.2</ele>
        <time>2022-05-15T06:18:07Z</time>
      </trkpt>
      <trkpt lat="43.64817" lon="3.87444">
        <ele>37.5</ele>
        <time>2022-05-15T06:18:17Z</time>
      </trkpt>
      <trkpt lat="43.64837" lon="3.875">
        <ele>35.7</ele>
        <time>2022-05-15T06:18:27Z</time>
      </trkpt>
      <trkpt lat="43.64854" lon="3.87541">
        <ele>34.9</ele>
        <time>2022-05-15T06:18:37Z</time>
      </trkpt>
      <trkpt lat="43.64868" lon="3.87602">
        <ele>35.1</ele>
        <time>2022-05-15T06:18:47Z</time>
      </trkpt>
      <trkpt lat="43.64872" lon="3.87672">
        <ele>35.5</ele>
        <time>2022-05-15T06:18:57Z</time>
      </trkpt>
      <trkpt lat="43.64867" lon="3.87721">
        <ele>35.6</ele>
        <time>2022-05-15T06:19:07Z</time>
      </trkpt>
      <trkpt lat="43.64847" lon="3.87755">
        <ele>36</ele>
        <time>2022-05-15T06:19:17Z</time>
      </trkpt>
      <trkpt lat="43.64846" lon="3.87803">
        <ele>36.9</ele>
        <time>2022-05-15T06:19:27Z</time>
      </trkpt>
      <trkpt lat="43.64859" lon="3.87842">
        <ele>35.1</ele>
        <time>2022-05-15T06:19:37Z</time>
      </trkpt>
      <trkpt lat="43.64888" lon="3.87862">
        <ele>33.1</ele>
        <time>2022-05-15T06:19:47Z</time>
      </trkpt>
      <trkpt lat="43.64914" lon="3.87864">
        <ele>31.2</ele>
        <time>2022-05-15T06:19:57Z</time>
      </trkpt>
      <trkpt lat="43.64922" lon="3.87861">
        <ele>31</ele>
        <time>2022-05-15T06:20:07Z</time>
      </trkpt>
      <trkpt lat="43.64927" lon="3.87855">
        <ele>31.1</ele>
        <time>2022-05-15T06:20:17Z</time>
      </trkpt>
      <trkpt lat="43.64933" lon="3.87846">
        <ele>31.3</ele>
        <time>2022-05-15T06:20:27Z</time>
      </trkpt>
      <trkpt lat="43.64938" lon="3.87836">
        <ele>31.7</ele>
        <time>2022-05-15T06:20:37Z</time>
      </trkpt>
      <trkpt lat="43.64941" lon="3.87795">
        <ele>32.3</ele>
        <time>2022-05-15T06:21:27Z</time>
      </trkpt>
      <trkpt lat="43.64955" lon="3.87788">
        <ele>33.5</ele>
        <time>2022-05-15T06:21:47Z</time>
      </trkpt>
      <trkpt lat="43.6497" lon="3.87762">
        <ele>35</ele>
        <time>2022-05-15T06:21:57Z</time>
      </trkpt>
      <trkpt lat="43.64983" lon="3.87705">
        <ele>35.6</ele>
        <time>2022-05-15T06:22:07Z</time>
      </trkpt>
      <trkpt lat="43.65" lon="3.87642">
        <ele>35.1</ele>
        <time>2022-05-15T06:22:17Z</time>
      </trkpt>
      <trkpt lat="43.65017" lon="3.87577">
        <ele>36.1</ele>
        <time>2022-05-15T06:22:27Z</time>
      </trkpt>
      <trkpt lat="43.65033" lon="3.8751">
        <ele>35.4</ele>
        <time>2022-05-15T06:22:37Z</time>
      </trkpt>
      <trkpt lat="43.6505" lon="3.87441">
        <ele>35.7</ele>
        <time>2022-05-15T06:22:47Z</time>
      </trkpt>
      <trkpt lat="43.65068" lon="3.87372">
        <ele>36.1</ele>
        <time>2022-05-15T06:22:57Z</time>
      </trkpt>
      <trkpt lat="43.65083" lon="3.87311">
        <ele>35.2</ele>
        <time>2022-05-15T06:23:07Z</time>
      </trkpt>
      <trkpt lat="43.65102" lon="3.87243">
        <ele>36.1</ele>
        <time>2022-05-15T06:23:17Z</time>
      </trkpt>
      <trkpt lat="43.65119" lon="3.8719">
        <ele>37.2</ele>
        <time>2022-05-15T06:23:27Z</time>
      </trkpt>
      <trkpt lat="43.65147" lon="3.87163">
        <ele>37.4</ele>
        <time>2022-05-15T06:23:37Z</time>
      </trkpt>
      <trkpt lat="43.65163" lon="3.87099">
        <ele>37.4</ele>
        <time>2022-05-15T06:23:47Z</time>
      </trkpt>
      <trkpt lat="43.65196" lon="3.87069">
        <ele>39.8</ele>
        <time>2022-05-15T06:23:57Z</time>
      </trkpt>
      <trkpt lat="43.65236" lon="3.87024">
        <ele>36.9</ele>
        <time>2022-05-15T06:24:07Z</time>
      </trkpt>
      <trkpt lat="43.65266" lon="3.86969">
        <ele>37.7</ele>
        <time>2022-05-15T06:24:17Z</time>
      </trkpt>
      <trkpt lat="43.65288" lon="3.86919">
        <ele>39</ele>
        <time>2022-05-15T06:24:27Z</time>
      </trkpt>
      <trkpt lat="43.65336" lon="3.86897">
        <ele>39.1</ele>
        <time>2022-05-15T06:24:37Z</time>
      </trkpt>
      <trkpt lat="43.65381" lon="3.86867">
        <ele>39.6</ele>
        <time>2022-05-15T06:24:47Z</time>
      </trkpt>
      <trkpt lat="43.65426" lon="3.86835">
        <ele>39.6</ele>
        <time>2022-05-15T06:24:57Z</time>
      </trkpt>
      <trkpt lat="43.65467" lon="3.86807">
        <ele>40</ele>
        <time>2022-05-15T06:25:07Z</time>
      </trkpt>
      <trkpt lat="43.65484" lon="3.86837">
        <ele>40</ele>
        <time>2022-05-15T06:25:17Z</time>
      </trkpt>
      <trkpt lat="43.65492" lon="3.86875">
        <ele>40</ele>
        <time>2022-05-15T06:25:27Z</time>
      </trkpt>
      <trkpt lat="43.65492" lon="3.8692">
        <ele>40</ele>
        <time>2022-05-15T06:25:37Z</time>
      </trkpt>
      <trkpt lat="43.65499" lon="3.86963">
        <ele>40</ele>
        <time>2022-05-15T06:25:47Z</time>
      </trkpt>
      <trkpt lat="43.65506" lon="3.86996">
        <ele>40.9</ele>
        <time>2022-05-15T06:25:57Z</time>
      </trkpt>
      <trkpt lat="43.6551" lon="3.87028">
        <ele>41</ele>
        <time>2022-05-15T06:26:07Z</time>
      </trkpt>
      <trkpt lat="43.65514" lon="3.87042">
        <ele>41.3</ele>
        <time>2022-05-15T06:26:17Z</time>
      </trkpt>
      <trkpt lat="43.65526" lon="3.87066">
        <ele>41.4</ele>
        <time>2022-05-15T06:26:27Z</time>
      </trkpt>
      <trkpt lat="43.65524" lon="3.87081">
        <ele>41.9</ele>
        <time>2022-05-15T06:26:47Z</time>
      </trkpt>
      <trkpt lat="43.65529" lon="3.87105">
        <ele>42.8</ele>
        <time>2022-05-15T06:26:57Z</time>
      </trkpt>
      <trkpt lat="43.65533" lon="3.87118">
        <ele>43.2</ele>
        <time>2022-05-15T06:27:17Z</time>
      </trkpt>
      <trkpt lat="43.65545" lon="3.87135">
        <ele>43.3</ele>
        <time>2022-05-15T06:27:27Z</time>
      </trkpt>
      <trkpt lat="43.65558" lon="3.87151">
        <ele>44</ele>
        <time>2022-05-15T06:27:37Z</time>
      </trkpt>
      <trkpt lat="43.65586" lon="3.87185">
        <ele>46.9</ele>
        <time>2022-05-15T06:28:37Z</time>
      </trkpt>
      <trkpt lat="43.65612" lon="3.87203">
        <ele>49.4</ele>
        <time>2022-05-15T06:28:57Z</time>
      </trkpt>
      <trkpt lat="43.65647" lon="3.87213">
        <ele>47.8</ele>
        <time>2022-05-15T06:29:07Z</time>
      </trkpt>
      <trkpt lat="43.6567" lon="3.87242">
        <ele>49.8</ele>
        <time>2022-05-15T06:29:17Z</time>
      </trkpt>
      <trkpt lat="43.65682" lon="3.87267">
        <ele>53.6</ele>
        <time>2022-05-15T06:29:27Z</time>
      </trkpt>
      <trkpt lat="43.65698" lon="3.87281">
        <ele>54</ele>
        <time>2022-05-15T06:29:37Z</time>
      </trkpt>
      <trkpt lat="43.65715" lon="3.87299">
        <ele>54.3</ele>
        <time>2022-05-15T06:29:47Z</time>
      </trkpt>
      <trkpt lat="43.6573" lon="3.8732">
        <ele>55.2</ele>
        <time>2022-05-15T06:29:57Z</time>
      </trkpt>
      <trkpt lat="43.65746" lon="3.87357">
        <ele>58.1</ele>
        <time>2022-05-15T06:30:07Z</time>
      </trkpt>
      <trkpt lat="43.6576" lon="3.87388">
        <ele>61.1</ele>
        <time>2022-05-15T06:30:17Z</time>
      </trkpt>
      <trkpt lat="43.65777" lon="3.87412">
        <ele>62.3</ele>
        <time>2022-05-15T06:30:27Z</time>
      </trkpt>
      <trkpt lat="43.65792" lon="3.87431">
        <ele>63.8</ele>
        <time>2022-05-15T06:30:37Z</time>
      </trkpt>
      <trkpt lat="43.65801" lon="3.8745">
        <ele>65.2</ele>
        <time>2022-05-15T06:30:47Z</time>
      </trkpt>
      <trkpt lat="43.65808" lon="3.8747">
        <ele>67.1</ele>
        <time>2022-05-15T06:30:57Z</time>
      </trkpt>
      <trkpt lat="43.65823" lon="3.8749">
        <ele>67.7</ele>
        <time>2022-05-15T06:31:07Z</time>
      </trkpt>
      <trkpt lat="43.65842" lon="3.87513">
        <ele>68.3</ele>
        <time>2022-05-15T06:31:17Z</time>
      </trkpt>
      <trkpt lat="43.65854" lon="3.87538">
        <ele>70.6</ele>
        <time>2022-05-15T06:31:27Z</time>
      </trkpt>
      <trkpt lat="43.65862" lon="3.87559">
        <ele>72.4</ele>
        <time>2022-05-15T06:31:37Z</time>
      </trkpt>
      <trkpt lat="43.65871" lon="3.87581">
        <ele>73.8</ele>
        <time>2022-05-15T06:31:47Z</time>
      </trkpt>
      <trkpt lat="43.65878" lon="3.87603">
        <ele>75</ele>
        <time>2022-05-15T06:31:57Z</time>
      </trkpt>
      <trkpt lat="43.65884" lon="3.87622">
        <ele>75.8</ele>
        <time>2022-05-15T06:32:07Z</time>
      </trkpt>
      <trkpt lat="43.65888" lon="3.87642">
        <ele>77.6</ele>
        <time>2022-05-15T06:32:17Z</time>
      </trkpt>
      <trkpt lat="43.65894" lon="3.87665">
        <ele>79.8</ele>
        <time>2022-05-15T06:32:27Z</time>
      </trkpt>
      <trkpt lat="43.659" lon="3.87686">
        <ele>80.9</ele>
        <time>2022-05-15T06:32:37Z</time>
      </trkpt>
      <trkpt lat="43.65904" lon="3.87711">
        <ele>82</ele>
        <time>2022-05-15T06:32:47Z</time>
      </trkpt>
      <trkpt lat="43.65908" lon="3.87734">
        <ele>82.5</ele>
        <time>2022-05-15T06:32:57Z</time>
      </trkpt>
      <trkpt lat="43.65938" lon="3.87731">
        <ele>79.5</ele>
        <time>2022-05-15T06:33:07Z</time>
      </trkpt>
      <trkpt lat="43.65961" lon="3.8772">
        <ele>74.1</ele>
        <time>2022-05-15T06:33:17Z</time>
      </trkpt>
      <trkpt lat="43.65986" lon="3.87716">
        <ele>69.2</ele>
        <time>2022-05-15T06:33:27Z</time>
      </trkpt>
      <trkpt lat="43.66016" lon="3.87695">
        <ele>65.6</ele>
        <time>2022-05-15T06:33:37Z</time>
      </trkpt>
      <trkpt lat="43.66048" lon="3.8765">
        <ele>66.2</ele>
        <time>2022-05-15T06:33:47Z</time>
      </trkpt>
      <trkpt lat="43.66065" lon="3.87609">
        <ele>67.1</ele>
        <time>2022-05-15T06:33:57Z</time>
      </trkpt>
      <trkpt lat="43.66079" lon="3.87581">
        <ele>69.7</ele>
        <time>2022-05-15T06:34:07Z</time>
      </trkpt>
      <trkpt lat="43.66091" lon="3.87562">
        <ele>73.2</ele>
        <time>2022-05-15T06:34:17Z</time>
      </trkpt>
      <trkpt lat="43.66096" lon="3.87545">
        <ele>75.7</ele>
        <time>2022-05-15T06:34:27Z</time>
      </trkpt>
      <trkpt lat="43.66095" lon="3.87527">
        <ele>77.2</ele>
        <time>2022-05-15T06:34:37Z</time>
      </trkpt>
      <trkpt lat="43.66105" lon="3.87525">
        <ele>79.1</ele>
        <time>2022-05-15T06:34:47Z</time>
      </trkpt>
      <trkpt lat="43.66108" lon="3.87547">
        <ele>78</ele>
        <time>2022-05-15T06:34:57Z</time>
      </trkpt>
      <trkpt lat="43.66118" lon="3.87567">
        <ele>79.3</ele>
        <time>2022-05-15T06:35:07Z</time>
      </trkpt>
      <trkpt lat="43.66129" lon="3.87584">
        <ele>81.7</ele>
        <time>2022-05-15T06:35:17Z</time>
      </trkpt>
      <trkpt lat="43.66139" lon="3.87611">
        <ele>82</ele>
        <time>2022-05-15T06:35:37Z</time>
      </trkpt>
      <trkpt lat="43.66147" lon="3.87624">
        <ele>83.1</ele>
        <time>2022-05-15T06:35:57Z</time>
      </trkpt>
      <trkpt lat="43.66153" lon="3.87643">
        <ele>83.3</ele>
        <time>2022-05-15T06:36:07Z</time>
      </trkpt>
      <trkpt lat="43.66158" lon="3.87662">
        <ele>83.5</ele>
        <time>2022-05-15T06:36:17Z</time>
      </trkpt>
      <trkpt lat="43.66168" lon="3.87679">
        <ele>85.1</ele>
        <time>2022-05-15T06:36:27Z</time>
      </trkpt>
      <trkpt lat="43.6618" lon="3.87699">
        <ele>87</ele>
        <time>2022-05-15T06:36:37Z</time>
      </trkpt>
      <trkpt lat="43.66188" lon="3.8772">
        <ele>88.1</ele>
        <time>2022-05-15T06:36:47Z</time>
      </trkpt>
      <trkpt lat="43.662" lon="3.87748">
        <ele>88.1</ele>
        <time>2022-05-15T06:36:57Z</time>
      </trkpt>
      <trkpt lat="43.66214" lon="3.87764">
        <ele>90.3</ele>
        <time>2022-05-15T06:37:07Z</time>
      </trkpt>
      <trkpt lat="43.66226" lon="3.8778">
        <ele>91.2</ele>
        <time>2022-05-15T06:37:17Z</time>
      </trkpt>
      <trkpt lat="43.66251" lon="3.87799">
        <ele>92.3</ele>
        <time>2022-05-15T06:37:27Z</time>
      </trkpt>
      <trkpt lat="43.66277" lon="3.87816">
        <ele>93</ele>
        <time>2022-05-15T06:37:37Z</time>
      </trkpt>
      <trkpt lat="43.66295" lon="3.87821">
        <ele>94.1</ele>
        <time>2022-05-15T06:37:47Z</time>
      </trkpt>
      <trkpt lat="43.66311" lon="3.87833">
        <ele>94.4</ele>
        <time>2022-05-15T06:37:57Z</time>
      </trkpt>
      <trkpt lat="43.66331" lon="3.87843">
        <ele>94.8</ele>
        <time>2022-05-15T06:38:07Z</time>
      </trkpt>
      <trkpt lat="43.66353" lon="3.87855">
        <ele>95.1</ele>
        <time>2022-05-15T06:38:17Z</time>
      </trkpt>
      <trkpt lat="43.66367" lon="3.87875">
        <ele>93.4</ele>
        <time>2022-05-15T06:38:27Z</time>
      </trkpt>
      <trkpt lat="43.66393" lon="3.87889">
        <ele>93.3</ele>
        <time>2022-05-15T06:38:37Z</time>
      </trkpt>
      <trkpt lat="43.66421" lon="3.87901">
        <ele>94</ele>
        <time>2022-05-15T06:38:47Z</time>
      </trkpt>
      <trkpt lat="43.66449" lon="3.87914">
        <ele>94.3</ele>
        <time>2022-05-15T06:38:57Z</time>
      </trkpt>
      <trkpt lat="43.66485" lon="3.87897">
        <ele>96.4</ele>
        <time>2022-05-15T06:39:07Z</time>
      </trkpt>
      <trkpt lat="43.66493" lon="3.8789">
        <ele>96.9</ele>
        <time>2022-05-15T06:39:17Z</time>
      </trkpt>
      <trkpt lat="43.66507" lon="3.87904">
        <ele>97.1</ele>
        <time>2022-05-15T06:39:37Z</time>
      </trkpt>
      <trkpt lat="43.66524" lon="3.87921">
        <ele>98.4</ele>
        <time>2022-05-15T06:39:57Z</time>
      </trkpt>
      <trkpt lat="43.66537" lon="3.87933">
        <ele>99.9</ele>
        <time>2022-05-15T06:40:07Z</time>
      </trkpt>
      <trkpt lat="43.66552" lon="3.87935">
        <ele>102.4</ele>
        <time>2022-05-15T06:40:17Z</time>
      </trkpt>
      <trkpt lat="43.66567" lon="3.87936">
        <ele>104.4</ele>
        <time>2022-05-15T06:40:27Z</time>
      </trkpt>
      <trkpt lat="43.66583" lon="3.87949">
        <ele>105.6</ele>
        <time>2022-05-15T06:40:37Z</time>
      </trkpt>
      <trkpt lat="43.66605" lon="3.8795">
        <ele>107.8</ele>
        <time>2022-05-15T06:40:47Z</time>
      </trkpt>
      <trkpt lat="43.66629" lon="3.87962">
        <ele>108.6</ele>
        <time>2022-05-15T06:40:57Z</time>
      </trkpt>
      <trkpt lat="43.66644" lon="3.87986">
        <ele>109.1</ele>
        <time>2022-05-15T06:41:07Z</time>
      </trkpt>
      <trkpt lat="43.66661" lon="3.88012">
        <ele>111.1</ele>
        <time>2022-05-15T06:41:17Z</time>
      </trkpt>
      <trkpt lat="43.66677" lon="3.88033">
        <ele>113.3</ele>
        <time>2022-05-15T06:41:27Z</time>
      </trkpt>
      <trkpt lat="43.66688" lon="3.88054">
        <ele>114.1</ele>
        <time>2022-05-15T06:41:37Z</time>
      </trkpt>
      <trkpt lat="43.66702" lon="3.88082">
        <ele>116.4</ele>
        <time>2022-05-15T06:41:47Z</time>
      </trkpt>
      <trkpt lat="43.66716" lon="3.88106">
        <ele>117.9</ele>
        <time>2022-05-15T06:41:57Z</time>
      </trkpt>
      <trkpt lat="43.66731" lon="3.88134">
        <ele>118.1</ele>
        <time>2022-05-15T06:42:07Z</time>
      </trkpt>
      <trkpt lat="43.66745" lon="3.88161">
        <ele>117.4</ele>
        <time>2022-05-15T06:42:17Z</time>
      </trkpt>
      <trkpt lat="43.66765" lon="3.88185">
        <ele>116.7</ele>
        <time>2022-05-15T06:42:27Z</time>
      </trkpt>
      <trkpt lat="43.66785" lon="3.88188">
        <ele>118.9</ele>
        <time>2022-05-15T06:42:37Z</time>
      </trkpt>
      <trkpt lat="43.66784" lon="3.8817">
        <ele>120.7</ele>
        <time>2022-05-15T06:42:47Z</time>
      </trkpt>
      <trkpt lat="43.66787" lon="3.8815">
        <ele>121.8</ele>
        <time>2022-05-15T06:44:37Z</time>
      </trkpt>
      <trkpt lat="43.6682" lon="3.88172">
        <ele>119.3</ele>
        <time>2022-05-15T06:44:57Z</time>
      </trkpt>
      <trkpt lat="43.66893" lon="3.88225">
        <ele>112.3</ele>
        <time>2022-05-15T06:45:07Z</time>
      </trkpt>
      <trkpt lat="43.66971" lon="3.88203">
        <ele>108.7</ele>
        <time>2022-05-15T06:45:17Z</time>
      </trkpt>
      <trkpt lat="43.67011" lon="3.88195">
        <ele>110</ele>
        <time>2022-05-15T06:45:27Z</time>
      </trkpt>
      <trkpt lat="43.67051" lon="3.88214">
        <ele>110.7</ele>
        <time>2022-05-15T06:45:37Z</time>
      </trkpt>
      <trkpt lat="43.67078" lon="3.88242">
        <ele>111.5</ele>
        <time>2022-05-15T06:45:47Z</time>
      </trkpt>
      <trkpt lat="43.671" lon="3.88265">
        <ele>113</ele>
        <time>2022-05-15T06:45:57Z</time>
      </trkpt>
      <trkpt lat="43.6712" lon="3.88282">
        <ele>114.7</ele>
        <time>2022-05-15T06:46:07Z</time>
      </trkpt>
      <trkpt lat="43.67141" lon="3.88269">
        <ele>117.2</ele>
        <time>2022-05-15T06:46:17Z</time>
      </trkpt>
      <trkpt lat="43.67166" lon="3.88274">
        <ele>119</ele>
        <time>2022-05-15T06:46:27Z</time>
      </trkpt>
      <trkpt lat="43.67186" lon="3.88287">
        <ele>119.1</ele>
        <time>2022-05-15T06:46:37Z</time>
      </trkpt>
      <trkpt lat="43.67213" lon="3.88291">
        <ele>118.7</ele>
        <time>2022-05-15T06:46:47Z</time>
      </trkpt>
      <trkpt lat="43.67231" lon="3.88268">
        <ele>120.1</ele>
        <time>2022-05-15T06:46:57Z</time>
      </trkpt>
      <trkpt lat="43.6725" lon="3.88251">
        <ele>120.9</ele>
        <time>2022-05-15T06:47:07Z</time>
      </trkpt>
      <trkpt lat="43.67273" lon="3.8823">
        <ele>122.3</ele>
        <time>2022-05-15T06:47:17Z</time>
      </trkpt>
      <trkpt lat="43.67303" lon="3.88246">
        <ele>121.3</ele>
        <time>2022-05-15T06:47:27Z</time>
      </trkpt>
      <trkpt lat="43.67334" lon="3.88268">
        <ele>119.1</ele>
        <time>2022-05-15T06:47:37Z</time>
      </trkpt>
      <trkpt lat="43.67358" lon="3.88299">
        <ele>117.3</ele>
        <time>2022-05-15T06:47:47Z</time>
      </trkpt>
      <trkpt lat="43.67356" lon="3.88314">
        <ele>115.8</ele>
        <time>2022-05-15T06:47:57Z</time>
      </trkpt>
      <trkpt lat="43.67357" lon="3.88351">
        <ele>112.5</ele>
        <time>2022-05-15T06:48:47Z</time>
      </trkpt>
      <trkpt lat="43.67373" lon="3.88354">
        <ele>112.9</ele>
        <time>2022-05-15T06:49:07Z</time>
      </trkpt>
      <trkpt lat="43.67368" lon="3.88382">
        <ele>110.7</ele>
        <time>2022-05-15T06:49:17Z</time>
      </trkpt>
      <trkpt lat="43.67352" lon="3.88412">
        <ele>107.7</ele>
        <time>2022-05-15T06:49:27Z</time>
      </trkpt>
      <trkpt lat="43.67337" lon="3.88457">
        <ele>102.7</ele>
        <time>2022-05-15T06:49:37Z</time>
      </trkpt>
      <trkpt lat="43.6731" lon="3.88528">
        <ele>98</ele>
        <time>2022-05-15T06:49:47Z</time>
      </trkpt>
      <trkpt lat="43.67273" lon="3.88612">
        <ele>94</ele>
        <time>2022-05-15T06:49:57Z</time>
      </trkpt>
      <trkpt lat="43.67237" lon="3.88688">
        <ele>92</ele>
        <time>2022-05-15T06:50:07Z</time>
      </trkpt>
      <trkpt lat="43.67271" lon="3.88707">
        <ele>91.7</ele>
        <time>2022-05-15T06:50:17Z</time>
      </trkpt>
      <trkpt lat="43.67322" lon="3.88722">
        <ele>90.4</ele>
        <time>2022-05-15T06:50:27Z</time>
      </trkpt>
      <trkpt lat="43.6737" lon="3.88736">
        <ele>90</ele>
        <time>2022-05-15T06:50:37Z</time>
      </trkpt>
      <trkpt lat="43.67399" lon="3.8871">
        <ele>91.6</ele>
        <time>2022-05-15T06:50:47Z</time>
      </trkpt>
      <trkpt lat="43.67418" lon="3.88698">
        <ele>92.2</ele>
        <time>2022-05-15T06:50:57Z</time>
      </trkpt>
      <trkpt lat="43.67438" lon="3.88684">
        <ele>93.8</ele>
        <time>2022-05-15T06:51:07Z</time>
      </trkpt>
      <trkpt lat="43.67458" lon="3.88674">
        <ele>95.4</ele>
        <time>2022-05-15T06:51:17Z</time>
      </trkpt>
      <trkpt lat="43.67471" lon="3.88692">
        <ele>95.9</ele>
        <time>2022-05-15T06:51:27Z</time>
      </trkpt>
      <trkpt lat="43.67479" lon="3.88722">
        <ele>96.8</ele>
        <time>2022-05-15T06:51:37Z</time>
      </trkpt>
      <trkpt lat="43.67493" lon="3.88752">
        <ele>94.3</ele>
        <time>2022-05-15T06:51:47Z</time>
      </trkpt>
      <trkpt lat="43.67526" lon="3.88775">
        <ele>90.3</ele>
        <time>2022-05-15T06:51:57Z</time>
      </trkpt>
      <trkpt lat="43.67547" lon="3.88785">
        <ele>91.7</ele>
        <time>2022-05-15T06:52:07Z</time>
      </trkpt>
      <trkpt lat="43.6756" lon="3.88781">
        <ele>93.5</ele>
        <time>2022-05-15T06:52:17Z</time>
      </trkpt>
      <trkpt lat="43.67583" lon="3.8878">
        <ele>96.8</ele>
        <time>2022-05-15T06:52:47Z</time>
      </trkpt>
      <trkpt lat="43.67596" lon="3.88771">
        <ele>97.2</ele>
        <time>2022-05-15T06:53:07Z</time>
      </trkpt>
      <trkpt lat="43.67608" lon="3.88754">
        <ele>98.5</ele>
        <time>2022-05-15T06:53:17Z</time>
      </trkpt>
      <trkpt lat="43.67622" lon="3.88743">
        <ele>99.1</ele>
        <time>2022-05-15T06:53:27Z</time>
      </trkpt>
      <trkpt lat="43.67645" lon="3.88751">
        <ele>98.2</ele>
        <time>2022-05-15T06:53:37Z</time>
      </trkpt>
      <trkpt lat="43.67669" lon="3.88746">
        <ele>99.5</ele>
        <time>2022-05-15T06:53:47Z</time>
      </trkpt>
      <trkpt lat="43.67691" lon="3.8874">
        <ele>101</ele>
        <time>2022-05-15T06:53:57Z</time>
      </trkpt>
      <trkpt lat="43.67713" lon="3.88733">
        <ele>101.8</ele>
        <time>2022-05-15T06:54:07Z</time>
      </trkpt>
      <trkpt lat="43.67725" lon="3.88757">
        <ele>99.7</ele>
        <time>2022-05-15T06:54:17Z</time>
      </trkpt>
      <trkpt lat="43.67749" lon="3.88792">
        <ele>97.4</ele>
        <time>2022-05-15T06:54:27Z</time>
      </trkpt>
      <trkpt lat="43.67789" lon="3.88787">
        <ele>96.5</ele>
        <time>2022-05-15T06:54:37Z</time>
      </trkpt>
      <trkpt lat="43.67817" lon="3.88789">
        <ele>94</ele>
        <time>2022-05-15T06:54:47Z</time>
      </trkpt>
      <trkpt lat="43.67857" lon="3.8879">
        <ele>91.6</ele>
        <time>2022-05-15T06:54:57Z</time>
      </trkpt>
      <trkpt lat="43.67889" lon="3.88788">
        <ele>87</ele>
        <time>2022-05-15T06:55:07Z</time>
      </trkpt>
      <trkpt lat="43.6792" lon="3.88805">
        <ele>87.2</ele>
        <time>2022-05-15T06:55:17Z</time>
      </trkpt>
      <trkpt lat="43.67947" lon="3.88836">
        <ele>86.6</ele>
        <time>2022-05-15T06:55:27Z</time>
      </trkpt>
      <trkpt lat="43.6801" lon="3.88844">
        <ele>83.9</ele>
        <time>2022-05-15T06:55:37Z</time>
      </trkpt>
      <trkpt lat="43.68071" lon="3.8885">
        <ele>82.4</ele>
        <time>2022-05-15T06:55:47Z</time>
      </trkpt>
      <trkpt lat="43.68117" lon="3.88852">
        <ele>82.5</ele>
        <time>2022-05-15T06:55:57Z</time>
      </trkpt>
      <trkpt lat="43.68158" lon="3.88849">
        <ele>84.1</ele>
        <time>2022-05-15T06:56:07Z</time>
      </trkpt>
      <trkpt lat="43.68193" lon="3.88846">
        <ele>85.5</ele>
        <time>2022-05-15T06:56:17Z</time>
      </trkpt>
      <trkpt lat="43.68224" lon="3.88844">
        <ele>87.1</ele>
        <time>2022-05-15T06:56:27Z</time>
      </trkpt>
      <trkpt lat="43.68253" lon="3.88842">
        <ele>88</ele>
        <time>2022-05-15T06:56:37Z</time>
      </trkpt>
      <trkpt lat="43.68283" lon="3.88856">
        <ele>87.2</ele>
        <time>2022-05-15T06:56:47Z</time>
      </trkpt>
      <trkpt lat="43.68314" lon="3.88862">
        <ele>87.3</ele>
        <time>2022-05-15T06:56:57Z</time>
      </trkpt>
      <trkpt lat="43.68342" lon="3.88875">
        <ele>87.7</ele>
        <time>2022-05-15T06:57:07Z</time>
      </trkpt>
      <trkpt lat="43.68373" lon="3.88888">
        <ele>87.6</ele>
        <time>2022-05-15T06:57:17Z</time>
      </trkpt>
      <trkpt lat="43.68408" lon="3.88884">
        <ele>87.9</ele>
        <time>2022-05-15T06:57:27Z</time>
      </trkpt>
      <trkpt lat="43.68438" lon="3.88888">
        <ele>88.8</ele>
        <time>2022-05-15T06:57:37Z</time>
      </trkpt>
      <trkpt lat="43.6847" lon="3.88891">
        <ele>89.9</ele>
        <time>2022-05-15T06:57:47Z</time>
      </trkpt>
      <trkpt lat="43.68501" lon="3.88896">
        <ele>90.7</ele>
        <time>2022-05-15T06:57:57Z</time>
      </trkpt>
      <trkpt lat="43.68537" lon="3.88903">
        <ele>90.5</ele>
        <time>2022-05-15T06:58:07Z</time>
      </trkpt>
      <trkpt lat="43.68574" lon="3.88934">
        <ele>89.6</ele>
        <time>2022-05-15T06:58:17Z</time>
      </trkpt>
      <trkpt lat="43.68617" lon="3.88961">
        <ele>88.9</ele>
        <time>2022-05-15T06:58:27Z</time>
      </trkpt>
      <trkpt lat="43.68662" lon="3.88985">
        <ele>88.9</ele>
        <time>2022-05-15T06:58:37Z</time>
      </trkpt>
      <trkpt lat="43.68708" lon="3.89013">
        <ele>88.1</ele>
        <time>2022-05-15T06:58:47Z</time>
      </trkpt>
      <trkpt lat="43.68758" lon="3.89027">
        <ele>88.1</ele>
        <time>2022-05-15T06:58:57Z</time>
      </trkpt>
      <trkpt lat="43.68804" lon="3.89031">
        <ele>88.8</ele>
        <time>2022-05-15T06:59:07Z</time>
      </trkpt>
      <trkpt lat="43.68845" lon="3.89047">
        <ele>89.9</ele>
        <time>2022-05-15T06:59:17Z</time>
      </trkpt>
      <trkpt lat="43.68871" lon="3.89033">
        <ele>91.5</ele>
        <time>2022-05-15T06:59:27Z</time>
      </trkpt>
      <trkpt lat="43.68883" lon="3.88993">
        <ele>92.1</ele>
        <time>2022-05-15T06:59:37Z</time>
      </trkpt>
      <trkpt lat="43.68881" lon="3.88973">
        <ele>93.9</ele>
        <time>2022-05-15T06:59:47Z</time>
      </trkpt>
      <trkpt lat="43.68885" lon="3.88962">
        <ele>95.2</ele>
        <time>2022-05-15T06:59:57Z</time>
      </trkpt>
      <trkpt lat="43.68882" lon="3.88948">
        <ele>97</ele>
        <time>2022-05-15T07:00:07Z</time>
      </trkpt>
      <trkpt lat="43.68887" lon="3.88938">
        <ele>97.6</ele>
        <time>2022-05-15T07:00:17Z</time>
      </trkpt>
      <trkpt lat="43.68893" lon="3.88921">
        <ele>98.1</ele>
        <time>2022-05-15T07:00:27Z</time>
      </trkpt>
      <trkpt lat="43.68903" lon="3.88915">
        <ele>97</ele>
        <time>2022-05-15T07:00:37Z</time>
      </trkpt>
      <trkpt lat="43.68923" lon="3.88921">
        <ele>93.3</ele>
        <time>2022-05-15T07:00:47Z</time>
      </trkpt>
      <trkpt lat="43.68929" lon="3.88949">
        <ele>91.1</ele>
        <time>2022-05-15T07:00:57Z</time>
      </trkpt>
      <trkpt lat="43.68927" lon="3.88983">
        <ele>89</ele>
        <time>2022-05-15T07:01:07Z</time>
      </trkpt>
      <trkpt lat="43.68933" lon="3.89022">
        <ele>86.8</ele>
        <time>2022-05-15T07:01:17Z</time>
      </trkpt>
      <trkpt lat="43.68947" lon="3.89051">
        <ele>85.1</ele>
        <time>2022-05-15T07:01:27Z</time>
      </trkpt>
      <trkpt lat="43.68961" lon="3.8907">
        <ele>84.3</ele>
        <time>2022-05-15T07:01:37Z</time>
      </trkpt>
      <trkpt lat="43.68974" lon="3.89069">
        <ele>84.6</ele>
        <time>2022-05-15T07:01:47Z</time>
      </trkpt>
      <trkpt lat="43.6899" lon="3.8907">
        <ele>85.5</ele>
        <time>2022-05-15T07:01:57Z</time>
      </trkpt>
      <trkpt lat="43.69012" lon="3.89067">
        <ele>86.6</ele>
        <time>2022-05-15T07:02:07Z</time>
      </trkpt>
      <trkpt lat="43.69032" lon="3.89071">
        <ele>87.8</ele>
        <time>2022-05-15T07:02:17Z</time>
      </trkpt>
      <trkpt lat="43.6905" lon="3.89077">
        <ele>89.3</ele>
        <time>2022-05-15T07:02:27Z</time>
      </trkpt>
      <trkpt lat="43.69066" lon="3.89095">
        <ele>90.5</ele>
        <time>2022-05-15T07:02:37Z</time>
      </trkpt>
      <trkpt lat="43.69081" lon="3.89113">
        <ele>91.9</ele>
        <time>2022-05-15T07:02:47Z</time>
      </trkpt>
      <trkpt lat="43.69094" lon="3.89134">
        <ele>93.3</ele>
        <time>2022-05-15T07:02:57Z</time>
      </trkpt>
      <trkpt lat="43.69106" lon="3.89154">
        <ele>94.3</ele>
        <time>2022-05-15T07:03:07Z</time>
      </trkpt>
      <trkpt lat="43.69117" lon="3.89173">
        <ele>95.6</ele>
        <time>2022-05-15T07:03:17Z</time>
      </trkpt>
      <trkpt lat="43.69128" lon="3.89193">
        <ele>96.8</ele>
        <time>2022-05-15T07:03:27Z</time>
      </trkpt>
      <trkpt lat="43.69139" lon="3.89213">
        <ele>98</ele>
        <time>2022-05-15T07:03:37Z</time>
      </trkpt>
      <trkpt lat="43.69153" lon="3.89238">
        <ele>98.5</ele>
        <time>2022-05-15T07:03:47Z</time>
      </trkpt>
      <trkpt lat="43.69174" lon="3.89271">
        <ele>99.2</ele>
        <time>2022-05-15T07:03:57Z</time>
      </trkpt>
      <trkpt lat="43.69194" lon="3.893">
        <ele>99.4</ele>
        <time>2022-05-15T07:04:07Z</time>
      </trkpt>
      <trkpt lat="43.69214" lon="3.89333">
        <ele>100.1</ele>
        <time>2022-05-15T07:04:17Z</time>
      </trkpt>
      <trkpt lat="43.69237" lon="3.89358">
        <ele>101.1</ele>
        <time>2022-05-15T07:04:27Z</time>
      </trkpt>
      <trkpt lat="43.69263" lon="3.89373">
        <ele>102</ele>
        <time>2022-05-15T07:04:37Z</time>
      </trkpt>
      <trkpt lat="43.69288" lon="3.89375">
        <ele>102.7</ele>
        <time>2022-05-15T07:04:47Z</time>
      </trkpt>
      <trkpt lat="43.69311" lon="3.89371">
        <ele>103.2</ele>
        <time>2022-05-15T07:04:57Z</time>
      </trkpt>
      <trkpt lat="43.69327" lon="3.89347">
        <ele>104.8</ele>
        <time>2022-05-15T07:05:07Z</time>
      </trkpt>
      <trkpt lat="43.69345" lon="3.8934">
        <ele>106.3</ele>
        <time>2022-05-15T07:05:17Z</time>
      </trkpt>
      <trkpt lat="43.6937" lon="3.8934">
        <ele>107.2</ele>
        <time>2022-05-15T07:05:27Z</time>
      </trkpt>
      <trkpt lat="43.69396" lon="3.89334">
        <ele>107.3</ele>
        <time>2022-05-15T07:05:37Z</time>
      </trkpt>
      <trkpt lat="43.69413" lon="3.89344">
        <ele>108.5</ele>
        <time>2022-05-15T07:05:47Z</time>
      </trkpt>
      <trkpt lat="43.69399" lon="3.89378">
        <ele>108.5</ele>
        <time>2022-05-15T07:06:07Z</time>
      </trkpt>
      <trkpt lat="43.69404" lon="3.89421">
        <ele>111.1</ele>
        <time>2022-05-15T07:06:27Z</time>
      </trkpt>
      <trkpt lat="43.69414" lon="3.89455">
        <ele>110.9</ele>
        <time>2022-05-15T07:06:37Z</time>
      </trkpt>
      <trkpt lat="43.69434" lon="3.89493">
        <ele>110.8</ele>
        <time>2022-05-15T07:06:47Z</time>
      </trkpt>
      <trkpt lat="43.69457" lon="3.89545">
        <ele>107.2</ele>
        <time>2022-05-15T07:06:57Z</time>
      </trkpt>
      <trkpt lat="43.69478" lon="3.89575">
        <ele>106.6</ele>
        <time>2022-05-15T07:07:07Z</time>
      </trkpt>
      <trkpt lat="43.69501" lon="3.89604">
        <ele>107</ele>
        <time>2022-05-15T07:07:17Z</time>
      </trkpt>
      <trkpt lat="43.69521" lon="3.89646">
        <ele>106.5</ele>
        <time>2022-05-15T07:07:27Z</time>
      </trkpt>
      <trkpt lat="43.69532" lon="3.89645">
        <ele>108.9</ele>
        <time>2022-05-15T07:07:37Z</time>
      </trkpt>
      <trkpt lat="43.69534" lon="3.89636">
        <ele>110.6</ele>
        <time>2022-05-15T07:07:47Z</time>
      </trkpt>
      <trkpt lat="43.69549" lon="3.89628">
        <ele>113.9</ele>
        <time>2022-05-15T07:08:07Z</time>
      </trkpt>
      <trkpt lat="43.6956" lon="3.89618">
        <ele>115.5</ele>
        <time>2022-05-15T07:08:27Z</time>
      </trkpt>
      <trkpt lat="43.69585" lon="3.89624">
        <ele>114.9</ele>
        <time>2022-05-15T07:08:37Z</time>
      </trkpt>
      <trkpt lat="43.69611" lon="3.89612">
        <ele>112</ele>
        <time>2022-05-15T07:08:47Z</time>
      </trkpt>
      <trkpt lat="43.69629" lon="3.89593">
        <ele>106.2</ele>
        <time>2022-05-15T07:08:57Z</time>
      </trkpt>
      <trkpt lat="43.69627" lon="3.89563">
        <ele>106.5</ele>
        <time>2022-05-15T07:09:07Z</time>
      </trkpt>
      <trkpt lat="43.69622" lon="3.89528">
        <ele>108</ele>
        <time>2022-05-15T07:09:17Z</time>
      </trkpt>
      <trkpt lat="43.69614" lon="3.89499">
        <ele>108.7</ele>
        <time>2022-05-15T07:09:27Z</time>
      </trkpt>
      <trkpt lat="43.69601" lon="3.89478">
        <ele>109.7</ele>
        <time>2022-05-15T07:09:37Z</time>
      </trkpt>
      <trkpt lat="43.69585" lon="3.89457">
        <ele>111.3</ele>
        <time>2022-05-15T07:09:47Z</time>
      </trkpt>
      <trkpt lat="43.69572" lon="3.89435">
        <ele>113</ele>
        <time>2022-05-15T07:09:57Z</time>
      </trkpt>
      <trkpt lat="43.69559" lon="3.89413">
        <ele>114</ele>
        <time>2022-05-15T07:10:07Z</time>
      </trkpt>
      <trkpt lat="43.69541" lon="3.89394">
        <ele>116.4</ele>
        <time>2022-05-15T07:10:17Z</time>
      </trkpt>
      <trkpt lat="43.6953" lon="3.89359">
        <ele>114.9</ele>
        <time>2022-05-15T07:10:27Z</time>
      </trkpt>
      <trkpt lat="43.6952" lon="3.89326">
        <ele>113.4</ele>
        <time>2022-05-15T07:10:37Z</time>
      </trkpt>
      <trkpt lat="43.69504" lon="3.89289">
        <ele>112.5</ele>
        <time>2022-05-15T07:10:47Z</time>
      </trkpt>
      <trkpt lat="43.6951" lon="3.89262">
        <ele>115.2</ele>
        <time>2022-05-15T07:10:57Z</time>
      </trkpt>
      <trkpt lat="43.69517" lon="3.8924">
        <ele>117.3</ele>
        <time>2022-05-15T07:11:07Z</time>
      </trkpt>
      <trkpt lat="43.69523" lon="3.89216">
        <ele>118.9</ele>
        <time>2022-05-15T07:11:17Z</time>
      </trkpt>
      <trkpt lat="43.69538" lon="3.89215">
        <ele>119.7</ele>
        <time>2022-05-15T07:11:27Z</time>
      </trkpt>
      <trkpt lat="43.69555" lon="3.89225">
        <ele>120.8</ele>
        <time>2022-05-15T07:11:37Z</time>
      </trkpt>
      <trkpt lat="43.69571" lon="3.89232">
        <ele>121.8</ele>
        <time>2022-05-15T07:11:47Z</time>
      </trkpt>
      <trkpt lat="43.69585" lon="3.89238">
        <ele>123.2</ele>
        <time>2022-05-15T07:11:57Z</time>
      </trkpt>
      <trkpt lat="43.69599" lon="3.89245">
        <ele>125.3</ele>
        <time>2022-05-15T07:12:07Z</time>
      </trkpt>
      <trkpt lat="43.69613" lon="3.89252">
        <ele>127.1</ele>
        <time>2022-05-15T07:12:17Z</time>
      </trkpt>
      <trkpt lat="43.69626" lon="3.89258">
        <ele>128</ele>
        <time>2022-05-15T07:12:27Z</time>
      </trkpt>
      <trkpt lat="43.69643" lon="3.89265">
        <ele>129.4</ele>
        <time>2022-05-15T07:12:37Z</time>
      </trkpt>
      <trkpt lat="43.69661" lon="3.89273">
        <ele>130.7</ele>
        <time>2022-05-15T07:12:47Z</time>
      </trkpt>
      <trkpt lat="43.69679" lon="3.89282">
        <ele>132.4</ele>
        <time>2022-05-15T07:12:57Z</time>
      </trkpt>
      <trkpt lat="43.69696" lon="3.8929">
        <ele>134</ele>
        <time>2022-05-15T07:13:07Z</time>
      </trkpt>
      <trkpt lat="43.69712" lon="3.89298">
        <ele>136</ele>
        <time>2022-05-15T07:13:17Z</time>
      </trkpt>
      <trkpt lat="43.69728" lon="3.89307">
        <ele>137.4</ele>
        <time>2022-05-15T07:13:27Z</time>
      </trkpt>
      <trkpt lat="43.69746" lon="3.89316">
        <ele>138</ele>
        <time>2022-05-15T07:13:37Z</time>
      </trkpt>
      <trkpt lat="43.69767" lon="3.89328">
        <ele>138.7</ele>
        <time>2022-05-15T07:13:47Z</time>
      </trkpt>
      <trkpt lat="43.69788" lon="3.89349">
        <ele>138.6</ele>
        <time>2022-05-15T07:13:57Z</time>
      </trkpt>
      <trkpt lat="43.69815" lon="3.89369">
        <ele>137.4</ele>
        <time>2022-05-15T07:14:07Z</time>
      </trkpt>
      <trkpt lat="43.69864" lon="3.89387">
        <ele>135.4</ele>
        <time>2022-05-15T07:14:17Z</time>
      </trkpt>
      <trkpt lat="43.6992" lon="3.89427">
        <ele>132.3</ele>
        <time>2022-05-15T07:14:27Z</time>
      </trkpt>
      <trkpt lat="43.69994" lon="3.89476">
        <ele>127.2</ele>
        <time>2022-05-15T07:14:37Z</time>
      </trkpt>
      <trkpt lat="43.70053" lon="3.89516">
        <ele>126.9</ele>
        <time>2022-05-15T07:14:47Z</time>
      </trkpt>
      <trkpt lat="43.70105" lon="3.89555">
        <ele>126.8</ele>
        <time>2022-05-15T07:14:57Z</time>
      </trkpt>
      <trkpt lat="43.70147" lon="3.89601">
        <ele>128.5</ele>
        <time>2022-05-15T07:15:07Z</time>
      </trkpt>
      <trkpt lat="43.70177" lon="3.89643">
        <ele>128.3</ele>
        <time>2022-05-15T07:15:17Z</time>
      </trkpt>
      <trkpt lat="43.70208" lon="3.89651">
        <ele>128.4</ele>
        <time>2022-05-15T07:15:27Z</time>
      </trkpt>
      <trkpt lat="43.7025" lon="3.89655">
        <ele>127</ele>
        <time>2022-05-15T07:15:37Z</time>
      </trkpt>
      <trkpt lat="43.70302" lon="3.89675">
        <ele>125.7</ele>
        <time>2022-05-15T07:15:47Z</time>
      </trkpt>
      <trkpt lat="43.70355" lon="3.89693">
        <ele>123.4</ele>
        <time>2022-05-15T07:15:57Z</time>
      </trkpt>
      <trkpt lat="43.7041" lon="3.89712">
        <ele>119</ele>
        <time>2022-05-15T07:16:07Z</time>
      </trkpt>
      <trkpt lat="43.70453" lon="3.89725">
        <ele>115.6</ele>
        <time>2022-05-15T07:16:17Z</time>
      </trkpt>
      <trkpt lat="43.70517" lon="3.89745">
        <ele>114.6</ele>
        <time>2022-05-15T07:16:27Z</time>
      </trkpt>
      <trkpt lat="43.70549" lon="3.8979">
        <ele>113.7</ele>
        <time>2022-05-15T07:16:37Z</time>
      </trkpt>
      <trkpt lat="43.70586" lon="3.89826">
        <ele>114.7</ele>
        <time>2022-05-15T07:16:47Z</time>
      </trkpt>
      <trkpt lat="43.70625" lon="3.89843">
        <ele>116.8</ele>
        <time>2022-05-15T07:16:57Z</time>
      </trkpt>
      <trkpt lat="43.70654" lon="3.89857">
        <ele>118.9</ele>
        <time>2022-05-15T07:17:07Z</time>
      </trkpt>
      <trkpt lat="43.70683" lon="3.89873">
        <ele>121.1</ele>
        <time>2022-05-15T07:17:17Z</time>
      </trkpt>
      <trkpt lat="43.70702" lon="3.89888">
        <ele>121.4</ele>
        <time>2022-05-15T07:17:27Z</time>
      </trkpt>
      <trkpt lat="43.70717" lon="3.89899">
        <ele>123.5</ele>
        <time>2022-05-15T07:17:37Z</time>
      </trkpt>
      <trkpt lat="43.70732" lon="3.8991">
        <ele>125.3</ele>
        <time>2022-05-15T07:17:47Z</time>
      </trkpt>
      <trkpt lat="43.70745" lon="3.89926">
        <ele>127</ele>
        <time>2022-05-15T07:17:57Z</time>
      </trkpt>
      <trkpt lat="43.7076" lon="3.8994">
        <ele>128.5</ele>
        <time>2022-05-15T07:18:07Z</time>
      </trkpt>
      <trkpt lat="43.70777" lon="3.89947">
        <ele>131.6</ele>
        <time>2022-05-15T07:18:17Z</time>
      </trkpt>
      <trkpt lat="43.70795" lon="3.89951">
        <ele>133</ele>
        <time>2022-05-15T07:18:27Z</time>
      </trkpt>
      <trkpt lat="43.70817" lon="3.89956">
        <ele>133.5</ele>
        <time>2022-05-15T07:18:37Z</time>
      </trkpt>
      <trkpt lat="43.70847" lon="3.8994">
        <ele>135</ele>
        <time>2022-05-15T07:18:47Z</time>
      </trkpt>
      <trkpt lat="43.70869" lon="3.8989">
        <ele>135</ele>
        <time>2022-05-15T07:18:57Z</time>
      </trkpt>
      <trkpt lat="43.70885" lon="3.89847">
        <ele>136.4</ele>
        <time>2022-05-15T07:19:07Z</time>
      </trkpt>
      <trkpt lat="43.70916" lon="3.89823">
        <ele>138.7</ele>
        <time>2022-05-15T07:19:17Z</time>
      </trkpt>
      <trkpt lat="43.70954" lon="3.89816">
        <ele>139.7</ele>
        <time>2022-05-15T07:19:27Z</time>
      </trkpt>
      <trkpt lat="43.70993" lon="3.89799">
        <ele>140.5</ele>
        <time>2022-05-15T07:19:37Z</time>
      </trkpt>
      <trkpt lat="43.71034" lon="3.89764">
        <ele>140.4</ele>
        <time>2022-05-15T07:19:47Z</time>
      </trkpt>
      <trkpt lat="43.7108" lon="3.89739">
        <ele>140.3</ele>
        <time>2022-05-15T07:19:57Z</time>
      </trkpt>
      <trkpt lat="43.71094" lon="3.89693">
        <ele>140.1</ele>
        <time>2022-05-15T07:20:07Z</time>
      </trkpt>
      <trkpt lat="43.71085" lon="3.89637">
        <ele>140.8</ele>
        <time>2022-05-15T07:20:17Z</time>
      </trkpt>
      <trkpt lat="43.71072" lon="3.89587">
        <ele>142.7</ele>
        <time>2022-05-15T07:20:27Z</time>
      </trkpt>
      <trkpt lat="43.71048" lon="3.89533">
        <ele>143.4</ele>
        <time>2022-05-15T07:20:37Z</time>
      </trkpt>
      <trkpt lat="43.71021" lon="3.8951">
        <ele>145</ele>
        <time>2022-05-15T07:20:47Z</time>
      </trkpt>
      <trkpt lat="43.70989" lon="3.89468">
        <ele>146.2</ele>
        <time>2022-05-15T07:20:57Z</time>
      </trkpt>
      <trkpt lat="43.70963" lon="3.89429">
        <ele>145.3</ele>
        <time>2022-05-15T07:21:07Z</time>
      </trkpt>
      <trkpt lat="43.70941" lon="3.89374">
        <ele>145.2</ele>
        <time>2022-05-15T07:21:17Z</time>
      </trkpt>
      <trkpt lat="43.70977" lon="3.89394">
        <ele>139</ele>
        <time>2022-05-15T07:21:27Z</time>
      </trkpt>
      <trkpt lat="43.71037" lon="3.89404">
        <ele>134.3</ele>
        <time>2022-05-15T07:21:37Z</time>
      </trkpt>
      <trkpt lat="43.71082" lon="3.89404">
        <ele>126.9</ele>
        <time>2022-05-15T07:21:47Z</time>
      </trkpt>
      <trkpt lat="43.71133" lon="3.8937">
        <ele>118.7</ele>
        <time>2022-05-15T07:21:57Z</time>
      </trkpt>
      <trkpt lat="43.71195" lon="3.89327">
        <ele>112.7</ele>
        <time>2022-05-15T07:22:07Z</time>
      </trkpt>
      <trkpt lat="43.71251" lon="3.89272">
        <ele>108.7</ele>
        <time>2022-05-15T07:22:17Z</time>
      </trkpt>
      <trkpt lat="43.71287" lon="3.89241">
        <ele>110.7</ele>
        <time>2022-05-15T07:22:27Z</time>
      </trkpt>
      <trkpt lat="43.71327" lon="3.8922">
        <ele>109.3</ele>
        <time>2022-05-15T07:22:37Z</time>
      </trkpt>
      <trkpt lat="43.71381" lon="3.89213">
        <ele>108.4</ele>
        <time>2022-05-15T07:22:47Z</time>
      </trkpt>
      <trkpt lat="43.71426" lon="3.89211">
        <ele>110.4</ele>
        <time>2022-05-15T07:22:57Z</time>
      </trkpt>
      <trkpt lat="43.7144" lon="3.89242">
        <ele>109.2</ele>
        <time>2022-05-15T07:23:07Z</time>
      </trkpt>
      <trkpt lat="43.71452" lon="3.89301">
        <ele>104.5</ele>
        <time>2022-05-15T07:23:17Z</time>
      </trkpt>
      <trkpt lat="43.71505" lon="3.8931">
        <ele>101.5</ele>
        <time>2022-05-15T07:23:27Z</time>
      </trkpt>
      <trkpt lat="43.71541" lon="3.89311">
        <ele>99.7</ele>
        <time>2022-05-15T07:23:37Z</time>
      </trkpt>
      <trkpt lat="43.71528" lon="3.89351">
        <ele>100.3</ele>
        <time>2022-05-15T07:23:47Z</time>
      </trkpt>
      <trkpt lat="43.71558" lon="3.89367">
        <ele>100.3</ele>
        <time>2022-05-15T07:23:57Z</time>
      </trkpt>
      <trkpt lat="43.71608" lon="3.8936">
        <ele>97.2</ele>
        <time>2022-05-15T07:24:07Z</time>
      </trkpt>
      <trkpt lat="43.71665" lon="3.89342">
        <ele>96.4</ele>
        <time>2022-05-15T07:24:17Z</time>
      </trkpt>
      <trkpt lat="43.71719" lon="3.89329">
        <ele>96.7</ele>
        <time>2022-05-15T07:24:27Z</time>
      </trkpt>
      <trkpt lat="43.71769" lon="3.89312">
        <ele>98.1</ele>
        <time>2022-05-15T07:24:37Z</time>
      </trkpt>
      <trkpt lat="43.71813" lon="3.89296">
        <ele>98.9</ele>
        <time>2022-05-15T07:24:47Z</time>
      </trkpt>
      <trkpt lat="43.71857" lon="3.89275">
        <ele>99.2</ele>
        <time>2022-05-15T07:24:57Z</time>
      </trkpt>
      <trkpt lat="43.71902" lon="3.89252">
        <ele>98.7</ele>
        <time>2022-05-15T07:25:07Z</time>
      </trkpt>
      <trkpt lat="43.71949" lon="3.89242">
        <ele>98.4</ele>
        <time>2022-05-15T07:25:17Z</time>
      </trkpt>
      <trkpt lat="43.71978" lon="3.8928">
        <ele>99.3</ele>
        <time>2022-05-15T07:25:27Z</time>
      </trkpt>
      <trkpt lat="43.72001" lon="3.89324">
        <ele>100</ele>
        <time>2022-05-15T07:25:37Z</time>
      </trkpt>
      <trkpt lat="43.72006" lon="3.89374">
        <ele>101.6</ele>
        <time>2022-05-15T07:25:47Z</time>
      </trkpt>
      <trkpt lat="43.72025" lon="3.89417">
        <ele>102.9</ele>
        <time>2022-05-15T07:25:57Z</time>
      </trkpt>
      <trkpt lat="43.72053" lon="3.89426">
        <ele>104.6</ele>
        <time>2022-05-15T07:26:07Z</time>
      </trkpt>
      <trkpt lat="43.72075" lon="3.89446">
        <ele>106.7</ele>
        <time>2022-05-15T07:26:17Z</time>
      </trkpt>
      <trkpt lat="43.72083" lon="3.89462">
        <ele>107</ele>
        <time>2022-05-15T07:26:27Z</time>
      </trkpt>
      <trkpt lat="43.72096" lon="3.89453">
        <ele>107.6</ele>
        <time>2022-05-15T07:26:37Z</time>
      </trkpt>
      <trkpt lat="43.7211" lon="3.89448">
        <ele>108.7</ele>
        <time>2022-05-15T07:26:47Z</time>
      </trkpt>
      <trkpt lat="43.72127" lon="3.89446">
        <ele>109.4</ele>
        <time>2022-05-15T07:26:57Z</time>
      </trkpt>
      <trkpt lat="43.72145" lon="3.89437">
        <ele>111</ele>
        <time>2022-05-15T07:27:07Z</time>
      </trkpt>
      <trkpt lat="43.7215" lon="3.8943">
        <ele>111.8</ele>
        <time>2022-05-15T07:27:17Z</time>
      </trkpt>
      <trkpt lat="43.72154" lon="3.89414">
        <ele>113.6</ele>
        <time>2022-05-15T07:27:27Z</time>
      </trkpt>
      <trkpt lat="43.72156" lon="3.89396">
        <ele>114.6</ele>
        <time>2022-05-15T07:27:57Z</time>
      </trkpt>
      <trkpt lat="43.72157" lon="3.89369">
        <ele>116.2</ele>
        <time>2022-05-15T07:28:17Z</time>
      </trkpt>
      <trkpt lat="43.72161" lon="3.89329">
        <ele>118.6</ele>
        <time>2022-05-15T07:28:27Z</time>
      </trkpt>
      <trkpt lat="43.72169" lon="3.89299">
        <ele>121</ele>
        <time>2022-05-15T07:28:37Z</time>
      </trkpt>
      <trkpt lat="43.72177" lon="3.89274">
        <ele>121.8</ele>
        <time>2022-05-15T07:28:47Z</time>
      </trkpt>
      <trkpt lat="43.72186" lon="3.89256">
        <ele>122.9</ele>
        <time>2022-05-15T07:29:07Z</time>
      </trkpt>
      <trkpt lat="43.72197" lon="3.89229">
        <ele>125.1</ele>
        <time>2022-05-15T07:29:17Z</time>
      </trkpt>
      <trkpt lat="43.72203" lon="3.89188">
        <ele>127.2</ele>
        <time>2022-05-15T07:29:27Z</time>
      </trkpt>
      <trkpt lat="43.72203" lon="3.89145">
        <ele>128.2</ele>
        <time>2022-05-15T07:29:37Z</time>
      </trkpt>
      <trkpt lat="43.722" lon="3.89094">
        <ele>124.8</ele>
        <time>2022-05-15T07:29:47Z</time>
      </trkpt>
      <trkpt lat="43.72195" lon="3.89056">
        <ele>124.8</ele>
        <time>2022-05-15T07:29:57Z</time>
      </trkpt>
      <trkpt lat="43.72185" lon="3.89025">
        <ele>123.7</ele>
        <time>2022-05-15T07:30:07Z</time>
      </trkpt>
      <trkpt lat="43.72186" lon="3.88989">
        <ele>119.8</ele>
        <time>2022-05-15T07:30:17Z</time>
      </trkpt>
      <trkpt lat="43.72192" lon="3.88968">
        <ele>116.7</ele>
        <time>2022-05-15T07:30:27Z</time>
      </trkpt>
      <trkpt lat="43.72191" lon="3.88921">
        <ele>113.7</ele>
        <time>2022-05-15T07:30:37Z</time>
      </trkpt>
      <trkpt lat="43.72182" lon="3.88899">
        <ele>113.2</ele>
        <time>2022-05-15T07:30:57Z</time>
      </trkpt>
      <trkpt lat="43.72176" lon="3.88892">
        <ele>114.2</ele>
        <time>2022-05-15T07:31:17Z</time>
      </trkpt>
      <trkpt lat="43.72171" lon="3.88882">
        <ele>114.9</ele>
        <time>2022-05-15T07:31:27Z</time>
      </trkpt>
      <trkpt lat="43.72167" lon="3.88845">
        <ele>114.3</ele>
        <time>2022-05-15T07:31:37Z</time>
      </trkpt>
      <trkpt lat="43.72154" lon="3.88799">
        <ele>107.1</ele>
        <time>2022-05-15T07:31:47Z</time>
      </trkpt>
      <trkpt lat="43.72148" lon="3.88749">
        <ele>105</ele>
        <time>2022-05-15T07:31:57Z</time>
      </trkpt>
      <trkpt lat="43.72149" lon="3.88711">
        <ele>102.1</ele>
        <time>2022-05-15T07:33:17Z</time>
      </trkpt>
      <trkpt lat="43.72157" lon="3.88659">
        <ele>97.4</ele>
        <time>2022-05-15T07:33:37Z</time>
      </trkpt>
      <trkpt lat="43.72177" lon="3.88632">
        <ele>96.2</ele>
        <time>2022-05-15T07:33:47Z</time>
      </trkpt>
      <trkpt lat="43.72182" lon="3.88626">
        <ele>96.6</ele>
        <time>2022-05-15T07:33:57Z</time>
      </trkpt>
      <trkpt lat="43.72191" lon="3.88605">
        <ele>95.5</ele>
        <time>2022-05-15T07:34:07Z</time>
      </trkpt>
      <trkpt lat="43.72188" lon="3.8858">
        <ele>93.1</ele>
        <time>2022-05-15T07:34:17Z</time>
      </trkpt>
      <trkpt lat="43.72176" lon="3.8855">
        <ele>90.5</ele>
        <time>2022-05-15T07:34:27Z</time>
      </trkpt>
      <trkpt lat="43.72169" lon="3.88512">
        <ele>91.7</ele>
        <time>2022-05-15T07:34:37Z</time>
      </trkpt>
      <trkpt lat="43.72176" lon="3.88484">
        <ele>91.2</ele>
        <time>2022-05-15T07:34:47Z</time>
      </trkpt>
      <trkpt lat="43.72196" lon="3.88448">
        <ele>86.3</ele>
        <time>2022-05-15T07:34:57Z</time>
      </trkpt>
      <trkpt lat="43.72187" lon="3.88417">
        <ele>85.7</ele>
        <time>2022-05-15T07:35:07Z</time>
      </trkpt>
      <trkpt lat="43.7217" lon="3.88379">
        <ele>86.5</ele>
        <time>2022-05-15T07:35:17Z</time>
      </trkpt>
      <trkpt lat="43.72165" lon="3.88333">
        <ele>85.8</ele>
        <time>2022-05-15T07:35:27Z</time>
      </trkpt>
      <trkpt lat="43.72131" lon="3.88295">
        <ele>82.6</ele>
        <time>2022-05-15T07:35:37Z</time>
      </trkpt>
      <trkpt lat="43.72131" lon="3.8828">
        <ele>82.6</ele>
        <time>2022-05-15T07:35:47Z</time>
      </trkpt>
      <trkpt lat="43.72123" lon="3.88271">
        <ele>83.3</ele>
        <time>2022-05-15T07:35:57Z</time>
      </trkpt>
      <trkpt lat="43.72126" lon="3.88228">
        <ele>84.2</ele>
        <time>2022-05-15T07:36:07Z</time>
      </trkpt>
      <trkpt lat="43.72134" lon="3.88215">
        <ele>83.7</ele>
        <time>2022-05-15T07:36:17Z</time>
      </trkpt>
      <trkpt lat="43.72141" lon="3.88179">
        <ele>84.9</ele>
        <time>2022-05-15T07:36:27Z</time>
      </trkpt>
      <trkpt lat="43.72156" lon="3.88131">
        <ele>84</ele>
        <time>2022-05-15T07:36:47Z</time>
      </trkpt>
      <trkpt lat="43.7218" lon="3.8807">
        <ele>82.5</ele>
        <time>2022-05-15T07:36:57Z</time>
      </trkpt>
      <trkpt lat="43.72199" lon="3.88028">
        <ele>81.5</ele>
        <time>2022-05-15T07:37:07Z</time>
      </trkpt>
      <trkpt lat="43.72222" lon="3.87998">
        <ele>80.2</ele>
        <time>2022-05-15T07:37:17Z</time>
      </trkpt>
      <trkpt lat="43.7224" lon="3.87968">
        <ele>81.1</ele>
        <time>2022-05-15T07:37:27Z</time>
      </trkpt>
      <trkpt lat="43.7225" lon="3.87921">
        <ele>79.8</ele>
        <time>2022-05-15T07:37:37Z</time>
      </trkpt>
      <trkpt lat="43.72254" lon="3.87872">
        <ele>81</ele>
        <time>2022-05-15T07:37:47Z</time>
      </trkpt>
      <trkpt lat="43.72261" lon="3.87853">
        <ele>80.9</ele>
        <time>2022-05-15T07:37:57Z</time>
      </trkpt>
      <trkpt lat="43.72272" lon="3.87847">
        <ele>80.5</ele>
        <time>2022-05-15T07:38:07Z</time>
      </trkpt>
      <trkpt lat="43.72299" lon="3.87843">
        <ele>79</ele>
        <time>2022-05-15T07:38:17Z</time>
      </trkpt>
      <trkpt lat="43.72334" lon="3.87845">
        <ele>80.6</ele>
        <time>2022-05-15T07:38:27Z</time>
      </trkpt>
      <trkpt lat="43.72354" lon="3.87821">
        <ele>78.8</ele>
        <time>2022-05-15T07:38:37Z</time>
      </trkpt>
      <trkpt lat="43.72369" lon="3.87787">
        <ele>78.8</ele>
        <time>2022-05-15T07:38:47Z</time>
      </trkpt>
      <trkpt lat="43.72384" lon="3.87737">
        <ele>77.8</ele>
        <time>2022-05-15T07:38:57Z</time>
      </trkpt>
      <trkpt lat="43.72388" lon="3.8768">
        <ele>76.2</ele>
        <time>2022-05-15T07:39:07Z</time>
      </trkpt>
      <trkpt lat="43.72395" lon="3.87632">
        <ele>76.1</ele>
        <time>2022-05-15T07:39:17Z</time>
      </trkpt>
      <trkpt lat="43.72426" lon="3.87592">
        <ele>76.2</ele>
        <time>2022-05-15T07:39:27Z</time>
      </trkpt>
      <trkpt lat="43.72434" lon="3.8757">
        <ele>76</ele>
        <time>2022-05-15T07:39:37Z</time>
      </trkpt>
      <trkpt lat="43.72446" lon="3.87511">
        <ele>74</ele>
        <time>2022-05-15T07:39:47Z</time>
      </trkpt>
      <trkpt lat="43.72487" lon="3.87499">
        <ele>74.5</ele>
        <time>2022-05-15T07:39:57Z</time>
      </trkpt>
      <trkpt lat="43.72524" lon="3.87495">
        <ele>73.2</ele>
        <time>2022-05-15T07:40:07Z</time>
      </trkpt>
      <trkpt lat="43.72538" lon="3.87499">
        <ele>75.6</ele>
        <time>2022-05-15T07:40:17Z</time>
      </trkpt>
      <trkpt lat="43.7255" lon="3.87499">
        <ele>78.6</ele>
        <time>2022-05-15T07:40:27Z</time>
      </trkpt>
      <trkpt lat="43.72562" lon="3.87499">
        <ele>81.3</ele>
        <time>2022-05-15T07:40:37Z</time>
      </trkpt>
      <trkpt lat="43.72574" lon="3.87499">
        <ele>83.9</ele>
        <time>2022-05-15T07:40:47Z</time>
      </trkpt>
      <trkpt lat="43.72585" lon="3.87493">
        <ele>85.6</ele>
        <time>2022-05-15T07:40:57Z</time>
      </trkpt>
      <trkpt lat="43.72604" lon="3.87484">
        <ele>85.6</ele>
        <time>2022-05-15T07:41:07Z</time>
      </trkpt>
      <trkpt lat="43.72627" lon="3.87498">
        <ele>86.8</ele>
        <time>2022-05-15T07:41:17Z</time>
      </trkpt>
      <trkpt lat="43.72657" lon="3.87485">
        <ele>85.7</ele>
        <time>2022-05-15T07:41:27Z</time>
      </trkpt>
      <trkpt lat="43.72686" lon="3.87452">
        <ele>86.4</ele>
        <time>2022-05-15T07:41:37Z</time>
      </trkpt>
      <trkpt lat="43.72713" lon="3.87419">
        <ele>88.1</ele>
        <time>2022-05-15T07:41:47Z</time>
      </trkpt>
      <trkpt lat="43.72731" lon="3.87397">
        <ele>89.3</ele>
        <time>2022-05-15T07:41:57Z</time>
      </trkpt>
      <trkpt lat="43.72761" lon="3.87358">
        <ele>86.2</ele>
        <time>2022-05-15T07:42:07Z</time>
      </trkpt>
      <trkpt lat="43.72788" lon="3.87327">
        <ele>89</ele>
        <time>2022-05-15T07:42:17Z</time>
      </trkpt>
      <trkpt lat="43.72809" lon="3.87301">
        <ele>90.9</ele>
        <time>2022-05-15T07:42:27Z</time>
      </trkpt>
      <trkpt lat="43.72837" lon="3.87265">
        <ele>90.3</ele>
        <time>2022-05-15T07:42:37Z</time>
      </trkpt>
      <trkpt lat="43.72869" lon="3.87219">
        <ele>85.8</ele>
        <time>2022-05-15T07:42:47Z</time>
      </trkpt>
      <trkpt lat="43.72867" lon="3.87163">
        <ele>80.4</ele>
        <time>2022-05-15T07:42:57Z</time>
      </trkpt>
      <trkpt lat="43.72814" lon="3.87132">
        <ele>79.5</ele>
        <time>2022-05-15T07:43:07Z</time>
      </trkpt>
      <trkpt lat="43.72756" lon="3.87084">
        <ele>74.6</ele>
        <time>2022-05-15T07:43:17Z</time>
      </trkpt>
      <trkpt lat="43.72712" lon="3.87053">
        <ele>71.2</ele>
        <time>2022-05-15T07:43:27Z</time>
      </trkpt>
      <trkpt lat="43.72723" lon="3.87017">
        <ele>75.7</ele>
        <time>2022-05-15T07:43:37Z</time>
      </trkpt>
      <trkpt lat="43.72696" lon="3.86956">
        <ele>69.7</ele>
        <time>2022-05-15T07:43:47Z</time>
      </trkpt>
      <trkpt lat="43.72707" lon="3.86963">
        <ele>71</ele>
        <time>2022-05-15T07:43:57Z</time>
      </trkpt>
      <trkpt lat="43.72744" lon="3.8696">
        <ele>71.1</ele>
        <time>2022-05-15T07:44:07Z</time>
      </trkpt>
      <trkpt lat="43.72783" lon="3.86948">
        <ele>71.3</ele>
        <time>2022-05-15T07:44:17Z</time>
      </trkpt>
      <trkpt lat="43.72803" lon="3.8693">
        <ele>71.8</ele>
        <time>2022-05-15T07:44:27Z</time>
      </trkpt>
      <trkpt lat="43.72831" lon="3.86882">
        <ele>71.7</ele>
        <time>2022-05-15T07:54:47Z</time>
      </trkpt>
      <trkpt lat="43.7286" lon="3.86878">
        <ele>72.2</ele>
        <time>2022-05-15T07:54:57Z</time>
      </trkpt>
      <trkpt lat="43.7287" lon="3.86829">
        <ele>73.1</ele>
        <time>2022-05-15T07:55:07Z</time>
      </trkpt>
      <trkpt lat="43.72875" lon="3.86787">
        <ele>68.8</ele>
        <time>2022-05-15T07:55:17Z</time>
      </trkpt>
      <trkpt lat="43.72898" lon="3.86766">
        <ele>67.5</ele>
        <time>2022-05-15T07:55:27Z</time>
      </trkpt>
      <trkpt lat="43.72912" lon="3.86744">
        <ele>67.1</ele>
        <time>2022-05-15T07:55:37Z</time>
      </trkpt>
      <trkpt lat="43.72906" lon="3.86722">
        <ele>71.3</ele>
        <time>2022-05-15T07:55:47Z</time>
      </trkpt>
      <trkpt lat="43.72907" lon="3.86689">
        <ele>71.6</ele>
        <time>2022-05-15T07:55:57Z</time>
      </trkpt>
      <trkpt lat="43.7289" lon="3.86659">
        <ele>72.7</ele>
        <time>2022-05-15T07:56:07Z</time>
      </trkpt>
      <trkpt lat="43.72832" lon="3.8668">
        <ele>69.5</ele>
        <time>2022-05-15T07:56:26Z</time>
      </trkpt>
      <trkpt lat="43.72819" lon="3.86633">
        <ele>72.4</ele>
        <time>2022-05-15T07:56:36Z</time>
      </trkpt>
      <trkpt lat="43.72807" lon="3.86587">
        <ele>71.3</ele>
        <time>2022-05-15T07:56:46Z</time>
      </trkpt>
      <trkpt lat="43.72797" lon="3.8654">
        <ele>74.7</ele>
        <time>2022-05-15T07:56:56Z</time>
      </trkpt>
      <trkpt lat="43.72786" lon="3.86498">
        <ele>75.6</ele>
        <time>2022-05-15T07:57:06Z</time>
      </trkpt>
      <trkpt lat="43.72783" lon="3.86466">
        <ele>77.1</ele>
        <time>2022-05-15T07:57:16Z</time>
      </trkpt>
      <trkpt lat="43.7278" lon="3.86445">
        <ele>78.1</ele>
        <time>2022-05-15T07:57:26Z</time>
      </trkpt>
      <trkpt lat="43.72774" lon="3.86421">
        <ele>80.4</ele>
        <time>2022-05-15T07:57:36Z</time>
      </trkpt>
      <trkpt lat="43.72769" lon="3.86396">
        <ele>80.7</ele>
        <time>2022-05-15T07:57:46Z</time>
      </trkpt>
      <trkpt lat="43.72761" lon="3.86369">
        <ele>81.3</ele>
        <time>2022-05-15T07:57:56Z</time>
      </trkpt>
      <trkpt lat="43.72756" lon="3.86339">
        <ele>81.8</ele>
        <time>2022-05-15T07:58:06Z</time>
      </trkpt>
      <trkpt lat="43.72751" lon="3.86308">
        <ele>82.9</ele>
        <time>2022-05-15T07:58:16Z</time>
      </trkpt>
      <trkpt lat="43.72745" lon="3.86277">
        <ele>83</ele>
        <time>2022-05-15T07:58:26Z</time>
      </trkpt>
      <trkpt lat="43.72741" lon="3.86242">
        <ele>83.1</ele>
        <time>2022-05-15T07:58:36Z</time>
      </trkpt>
      <trkpt lat="43.72737" lon="3.86212">
        <ele>82.9</ele>
        <time>2022-05-15T07:58:46Z</time>
      </trkpt>
      <trkpt lat="43.72728" lon="3.86183">
        <ele>83.7</ele>
        <time>2022-05-15T07:58:56Z</time>
      </trkpt>
      <trkpt lat="43.72712" lon="3.86163">
        <ele>84.7</ele>
        <time>2022-05-15T07:59:06Z</time>
      </trkpt>
      <trkpt lat="43.72699" lon="3.86144">
        <ele>86.6</ele>
        <time>2022-05-15T07:59:16Z</time>
      </trkpt>
      <trkpt lat="43.72687" lon="3.86123">
        <ele>87.5</ele>
        <time>2022-05-15T07:59:26Z</time>
      </trkpt>
      <trkpt lat="43.72675" lon="3.861">
        <ele>88.8</ele>
        <time>2022-05-15T07:59:36Z</time>
      </trkpt>
      <trkpt lat="43.72669" lon="3.86077">
        <ele>90.2</ele>
        <time>2022-05-15T07:59:46Z</time>
      </trkpt>
      <trkpt lat="43.72665" lon="3.86054">
        <ele>90.9</ele>
        <time>2022-05-15T07:59:56Z</time>
      </trkpt>
      <trkpt lat="43.72666" lon="3.86023">
        <ele>92</ele>
        <time>2022-05-15T08:00:06Z</time>
      </trkpt>
      <trkpt lat="43.72652" lon="3.85987">
        <ele>90.7</ele>
        <time>2022-05-15T08:00:16Z</time>
      </trkpt>
      <trkpt lat="43.72638" lon="3.85928">
        <ele>87.9</ele>
        <time>2022-05-15T08:00:26Z</time>
      </trkpt>
      <trkpt lat="43.72617" lon="3.85877">
        <ele>86.4</ele>
        <time>2022-05-15T08:00:36Z</time>
      </trkpt>
      <trkpt lat="43.72591" lon="3.85873">
        <ele>84.6</ele>
        <time>2022-05-15T08:00:46Z</time>
      </trkpt>
      <trkpt lat="43.72548" lon="3.85887">
        <ele>82.7</ele>
        <time>2022-05-15T08:00:56Z</time>
      </trkpt>
      <trkpt lat="43.72519" lon="3.85875">
        <ele>82.2</ele>
        <time>2022-05-15T08:01:06Z</time>
      </trkpt>
      <trkpt lat="43.72509" lon="3.85825">
        <ele>84.4</ele>
        <time>2022-05-15T08:01:16Z</time>
      </trkpt>
      <trkpt lat="43.72503" lon="3.85783">
        <ele>85.8</ele>
        <time>2022-05-15T08:01:26Z</time>
      </trkpt>
      <trkpt lat="43.7252" lon="3.85758">
        <ele>87.4</ele>
        <time>2022-05-15T08:01:36Z</time>
      </trkpt>
      <trkpt lat="43.72516" lon="3.85729">
        <ele>89.1</ele>
        <time>2022-05-15T08:01:46Z</time>
      </trkpt>
      <trkpt lat="43.72506" lon="3.85707">
        <ele>91.5</ele>
        <time>2022-05-15T08:01:56Z</time>
      </trkpt>
      <trkpt lat="43.72482" lon="3.857">
        <ele>91.1</ele>
        <time>2022-05-15T08:02:06Z</time>
      </trkpt>
      <trkpt lat="43.72448" lon="3.85694">
        <ele>92</ele>
        <time>2022-05-15T08:02:16Z</time>
      </trkpt>
      <trkpt lat="43.72413" lon="3.85705">
        <ele>91.5</ele>
        <time>2022-05-15T08:02:26Z</time>
      </trkpt>
      <trkpt lat="43.72384" lon="3.85705">
        <ele>93.5</ele>
        <time>2022-05-15T08:02:36Z</time>
      </trkpt>
      <trkpt lat="43.72362" lon="3.85696">
        <ele>94.8</ele>
        <time>2022-05-15T08:02:46Z</time>
      </trkpt>
      <trkpt lat="43.72335" lon="3.85719">
        <ele>93.2</ele>
        <time>2022-05-15T08:02:56Z</time>
      </trkpt>
      <trkpt lat="43.7231" lon="3.85731">
        <ele>92.9</ele>
        <time>2022-05-15T08:03:06Z</time>
      </trkpt>
      <trkpt lat="43.72284" lon="3.8572">
        <ele>93.2</ele>
        <time>2022-05-15T08:03:16Z</time>
      </trkpt>
      <trkpt lat="43.72305" lon="3.85704">
        <ele>94.6</ele>
        <time>2022-05-15T08:03:26Z</time>
      </trkpt>
      <trkpt lat="43.72328" lon="3.85686">
        <ele>95.2</ele>
        <time>2022-05-15T08:03:36Z</time>
      </trkpt>
      <trkpt lat="43.72353" lon="3.85664">
        <ele>96.8</ele>
        <time>2022-05-15T08:03:46Z</time>
      </trkpt>
      <trkpt lat="43.72376" lon="3.85643">
        <ele>98.3</ele>
        <time>2022-05-15T08:03:56Z</time>
      </trkpt>
      <trkpt lat="43.72398" lon="3.85619">
        <ele>99.5</ele>
        <time>2022-05-15T08:04:06Z</time>
      </trkpt>
      <trkpt lat="43.72415" lon="3.85594">
        <ele>101.5</ele>
        <time>2022-05-15T08:04:16Z</time>
      </trkpt>
      <trkpt lat="43.72432" lon="3.85567">
        <ele>102.9</ele>
        <time>2022-05-15T08:04:26Z</time>
      </trkpt>
      <trkpt lat="43.72451" lon="3.85539">
        <ele>104.2</ele>
        <time>2022-05-15T08:04:36Z</time>
      </trkpt>
      <trkpt lat="43.72471" lon="3.85509">
        <ele>104.9</ele>
        <time>2022-05-15T08:04:46Z</time>
      </trkpt>
      <trkpt lat="43.72493" lon="3.85477">
        <ele>107.2</ele>
        <time>2022-05-15T08:04:56Z</time>
      </trkpt>
      <trkpt lat="43.72516" lon="3.8544">
        <ele>108.1</ele>
        <time>2022-05-15T08:05:06Z</time>
      </trkpt>
      <trkpt lat="43.72535" lon="3.85404">
        <ele>109</ele>
        <time>2022-05-15T08:05:16Z</time>
      </trkpt>
      <trkpt lat="43.72554" lon="3.85367">
        <ele>109.9</ele>
        <time>2022-05-15T08:05:26Z</time>
      </trkpt>
      <trkpt lat="43.7257" lon="3.85321">
        <ele>109.8</ele>
        <time>2022-05-15T08:05:36Z</time>
      </trkpt>
      <trkpt lat="43.72607" lon="3.85297">
        <ele>108.8</ele>
        <time>2022-05-15T08:05:46Z</time>
      </trkpt>
      <trkpt lat="43.72658" lon="3.85289">
        <ele>108.1</ele>
        <time>2022-05-15T08:05:56Z</time>
      </trkpt>
      <trkpt lat="43.72698" lon="3.85276">
        <ele>107.5</ele>
        <time>2022-05-15T08:06:06Z</time>
      </trkpt>
      <trkpt lat="43.72733" lon="3.85266">
        <ele>108</ele>
        <time>2022-05-15T08:06:16Z</time>
      </trkpt>
      <trkpt lat="43.7277" lon="3.85285">
        <ele>110.7</ele>
        <time>2022-05-15T08:06:26Z</time>
      </trkpt>
      <trkpt lat="43.72789" lon="3.85346">
        <ele>108.1</ele>
        <time>2022-05-15T08:06:36Z</time>
      </trkpt>
      <trkpt lat="43.72823" lon="3.85405">
        <ele>105.2</ele>
        <time>2022-05-15T08:06:46Z</time>
      </trkpt>
      <trkpt lat="43.72879" lon="3.8537">
        <ele>102.7</ele>
        <time>2022-05-15T08:06:56Z</time>
      </trkpt>
      <trkpt lat="43.72951" lon="3.85354">
        <ele>97.9</ele>
        <time>2022-05-15T08:07:06Z</time>
      </trkpt>
      <trkpt lat="43.73035" lon="3.85318">
        <ele>93.1</ele>
        <time>2022-05-15T08:07:16Z</time>
      </trkpt>
      <trkpt lat="43.73114" lon="3.85306">
        <ele>90</ele>
        <time>2022-05-15T08:07:26Z</time>
      </trkpt>
      <trkpt lat="43.73172" lon="3.85306">
        <ele>87.2</ele>
        <time>2022-05-15T08:07:36Z</time>
      </trkpt>
      <trkpt lat="43.7318" lon="3.85196">
        <ele>78.7</ele>
        <time>2022-05-15T08:07:46Z</time>
      </trkpt>
      <trkpt lat="43.73236" lon="3.85147">
        <ele>74.9</ele>
        <time>2022-05-15T08:07:56Z</time>
      </trkpt>
      <trkpt lat="43.73293" lon="3.85135">
        <ele>74.7</ele>
        <time>2022-05-15T08:08:06Z</time>
      </trkpt>
      <trkpt lat="43.73296" lon="3.85068">
        <ele>77.2</ele>
        <time>2022-05-15T08:08:16Z</time>
      </trkpt>
      <trkpt lat="43.73262" lon="3.85021">
        <ele>78.8</ele>
        <time>2022-05-15T08:08:26Z</time>
      </trkpt>
      <trkpt lat="43.73272" lon="3.84966">
        <ele>79.4</ele>
        <time>2022-05-15T08:08:36Z</time>
      </trkpt>
      <trkpt lat="43.73297" lon="3.84911">
        <ele>81</ele>
        <time>2022-05-15T08:08:46Z</time>
      </trkpt>
      <trkpt lat="43.7332" lon="3.84859">
        <ele>81.1</ele>
        <time>2022-05-15T08:08:56Z</time>
      </trkpt>
      <trkpt lat="43.73338" lon="3.84808">
        <ele>82</ele>
        <time>2022-05-15T08:09:06Z</time>
      </trkpt>
      <trkpt lat="43.73366" lon="3.84765">
        <ele>81.2</ele>
        <time>2022-05-15T08:09:16Z</time>
      </trkpt>
      <trkpt lat="43.734" lon="3.84731">
        <ele>80.9</ele>
        <time>2022-05-15T08:09:26Z</time>
      </trkpt>
      <trkpt lat="43.73426" lon="3.84697">
        <ele>81.4</ele>
        <time>2022-05-15T08:09:36Z</time>
      </trkpt>
      <trkpt lat="43.73413" lon="3.84667">
        <ele>82</ele>
        <time>2022-05-15T08:09:46Z</time>
      </trkpt>
      <trkpt lat="43.73394" lon="3.84642">
        <ele>82</ele>
        <time>2022-05-15T08:09:56Z</time>
      </trkpt>
      <trkpt lat="43.73377" lon="3.84611">
        <ele>82.9</ele>
        <time>2022-05-15T08:10:06Z</time>
      </trkpt>
      <trkpt lat="43.7336" lon="3.84578">
        <ele>82.9</ele>
        <time>2022-05-15T08:10:16Z</time>
      </trkpt>
      <trkpt lat="43.73343" lon="3.84543">
        <ele>83</ele>
        <time>2022-05-15T08:10:26Z</time>
      </trkpt>
      <trkpt lat="43.73323" lon="3.84504">
        <ele>83.4</ele>
        <time>2022-05-15T08:10:36Z</time>
      </trkpt>
      <trkpt lat="43.73304" lon="3.84463">
        <ele>83</ele>
        <time>2022-05-15T08:10:46Z</time>
      </trkpt>
      <trkpt lat="43.73285" lon="3.84424">
        <ele>83</ele>
        <time>2022-05-15T08:10:56Z</time>
      </trkpt>
      <trkpt lat="43.73262" lon="3.84389">
        <ele>83.6</ele>
        <time>2022-05-15T08:11:06Z</time>
      </trkpt>
      <trkpt lat="43.73238" lon="3.84354">
        <ele>83.9</ele>
        <time>2022-05-15T08:11:16Z</time>
      </trkpt>
      <trkpt lat="43.73216" lon="3.84321">
        <ele>84</ele>
        <time>2022-05-15T08:11:26Z</time>
      </trkpt>
      <trkpt lat="43.73192" lon="3.84288">
        <ele>84.1</ele>
        <time>2022-05-15T08:11:36Z</time>
      </trkpt>
      <trkpt lat="43.73169" lon="3.84255">
        <ele>84.1</ele>
        <time>2022-05-15T08:11:46Z</time>
      </trkpt>
      <trkpt lat="43.73145" lon="3.8422">
        <ele>84.7</ele>
        <time>2022-05-15T08:11:56Z</time>
      </trkpt>
      <trkpt lat="43.73122" lon="3.84187">
        <ele>84.4</ele>
        <time>2022-05-15T08:12:06Z</time>
      </trkpt>
      <trkpt lat="43.73097" lon="3.84151">
        <ele>84.2</ele>
        <time>2022-05-15T08:12:16Z</time>
      </trkpt>
      <trkpt lat="43.73066" lon="3.84107">
        <ele>83.9</ele>
        <time>2022-05-15T08:12:27Z</time>
      </trkpt>
      <trkpt lat="43.73039" lon="3.8407">
        <ele>83.5</ele>
        <time>2022-05-15T08:12:37Z</time>
      </trkpt>
      <trkpt lat="43.73013" lon="3.84033">
        <ele>83.1</ele>
        <time>2022-05-15T08:12:47Z</time>
      </trkpt>
      <trkpt lat="43.72987" lon="3.83999">
        <ele>83</ele>
        <time>2022-05-15T08:12:57Z</time>
      </trkpt>
      <trkpt lat="43.72963" lon="3.83961">
        <ele>82.7</ele>
        <time>2022-05-15T08:13:07Z</time>
      </trkpt>
      <trkpt lat="43.72962" lon="3.83909">
        <ele>82</ele>
        <time>2022-05-15T08:13:17Z</time>
      </trkpt>
      <trkpt lat="43.72964" lon="3.83857">
        <ele>82</ele>
        <time>2022-05-15T08:13:27Z</time>
      </trkpt>
      <trkpt lat="43.72966" lon="3.83806">
        <ele>82</ele>
        <time>2022-05-15T08:13:37Z</time>
      </trkpt>
      <trkpt lat="43.72966" lon="3.83753">
        <ele>82</ele>
        <time>2022-05-15T08:13:47Z</time>
      </trkpt>
      <trkpt lat="43.72967" lon="3.83701">
        <ele>81.9</ele>
        <time>2022-05-15T08:13:57Z</time>
      </trkpt>
      <trkpt lat="43.72969" lon="3.8365">
        <ele>81.9</ele>
        <time>2022-05-15T08:14:07Z</time>
      </trkpt>
      <trkpt lat="43.7297" lon="3.83599">
        <ele>81.9</ele>
        <time>2022-05-15T08:14:17Z</time>
      </trkpt>
      <trkpt lat="43.72971" lon="3.8355">
        <ele>82</ele>
        <time>2022-05-15T08:14:27Z</time>
      </trkpt>
      <trkpt lat="43.72972" lon="3.83501">
        <ele>82</ele>
        <time>2022-05-15T08:14:37Z</time>
      </trkpt>
      <trkpt lat="43.72973" lon="3.83454">
        <ele>82</ele>
        <time>2022-05-15T08:14:47Z</time>
      </trkpt>
      <trkpt lat="43.72975" lon="3.83407">
        <ele>83</ele>
        <time>2022-05-15T08:14:57Z</time>
      </trkpt>
      <trkpt lat="43.72974" lon="3.8336">
        <ele>83</ele>
        <time>2022-05-15T08:15:07Z</time>
      </trkpt>
      <trkpt lat="43.72969" lon="3.83313">
        <ele>83</ele>
        <time>2022-05-15T08:15:17Z</time>
      </trkpt>
      <trkpt lat="43.72963" lon="3.83267">
        <ele>83.1</ele>
        <time>2022-05-15T08:15:27Z</time>
      </trkpt>
      <trkpt lat="43.72957" lon="3.8322">
        <ele>83.5</ele>
        <time>2022-05-15T08:15:37Z</time>
      </trkpt>
      <trkpt lat="43.72949" lon="3.83197">
        <ele>83.2</ele>
        <time>2022-05-15T08:15:47Z</time>
      </trkpt>
      <trkpt lat="43.72933" lon="3.83177">
        <ele>82.6</ele>
        <time>2022-05-15T08:17:37Z</time>
      </trkpt>
      <trkpt lat="43.72933" lon="3.83143">
        <ele>83.3</ele>
        <time>2022-05-15T08:17:57Z</time>
      </trkpt>
      <trkpt lat="43.72955" lon="3.83103">
        <ele>84.2</ele>
        <time>2022-05-15T08:18:07Z</time>
      </trkpt>
      <trkpt lat="43.7296" lon="3.83049">
        <ele>85</ele>
        <time>2022-05-15T08:18:17Z</time>
      </trkpt>
      <trkpt lat="43.7294" lon="3.83002">
        <ele>86.4</ele>
        <time>2022-05-15T08:18:27Z</time>
      </trkpt>
      <trkpt lat="43.72932" lon="3.82967">
        <ele>85.5</ele>
        <time>2022-05-15T08:18:37Z</time>
      </trkpt>
      <trkpt lat="43.72916" lon="3.82943">
        <ele>86.2</ele>
        <time>2022-05-15T08:18:47Z</time>
      </trkpt>
      <trkpt lat="43.729" lon="3.82913">
        <ele>89</ele>
        <time>2022-05-15T08:18:57Z</time>
      </trkpt>
      <trkpt lat="43.72887" lon="3.82871">
        <ele>87.6</ele>
        <time>2022-05-15T08:19:07Z</time>
      </trkpt>
      <trkpt lat="43.72877" lon="3.82817">
        <ele>86.9</ele>
        <time>2022-05-15T08:19:17Z</time>
      </trkpt>
      <trkpt lat="43.72858" lon="3.82787">
        <ele>87.7</ele>
        <time>2022-05-15T08:19:27Z</time>
      </trkpt>
      <trkpt lat="43.72838" lon="3.82798">
        <ele>90.8</ele>
        <time>2022-05-15T08:19:37Z</time>
      </trkpt>
      <trkpt lat="43.72825" lon="3.82781">
        <ele>91.5</ele>
        <time>2022-05-15T08:19:47Z</time>
      </trkpt>
      <trkpt lat="43.72811" lon="3.82761">
        <ele>92.1</ele>
        <time>2022-05-15T08:19:57Z</time>
      </trkpt>
      <trkpt lat="43.72794" lon="3.82724">
        <ele>91.4</ele>
        <time>2022-05-15T08:20:07Z</time>
      </trkpt>
      <trkpt lat="43.72768" lon="3.82688">
        <ele>92</ele>
        <time>2022-05-15T08:20:17Z</time>
      </trkpt>
      <trkpt lat="43.72741" lon="3.82654">
        <ele>92.7</ele>
        <time>2022-05-15T08:20:27Z</time>
      </trkpt>
      <trkpt lat="43.72711" lon="3.82617">
        <ele>93.6</ele>
        <time>2022-05-15T08:20:37Z</time>
      </trkpt>
      <trkpt lat="43.72682" lon="3.82586">
        <ele>94.1</ele>
        <time>2022-05-15T08:20:47Z</time>
      </trkpt>
      <trkpt lat="43.72652" lon="3.82552">
        <ele>94.8</ele>
        <time>2022-05-15T08:20:57Z</time>
      </trkpt>
      <trkpt lat="43.72621" lon="3.82517">
        <ele>95.9</ele>
        <time>2022-05-15T08:21:07Z</time>
      </trkpt>
      <trkpt lat="43.72588" lon="3.82487">
        <ele>97.4</ele>
        <time>2022-05-15T08:21:17Z</time>
      </trkpt>
      <trkpt lat="43.72567" lon="3.82469">
        <ele>98.6</ele>
        <time>2022-05-15T08:21:27Z</time>
      </trkpt>
      <trkpt lat="43.72549" lon="3.8245">
        <ele>99</ele>
        <time>2022-05-15T08:21:37Z</time>
      </trkpt>
      <trkpt lat="43.72528" lon="3.82429">
        <ele>99.7</ele>
        <time>2022-05-15T08:21:47Z</time>
      </trkpt>
      <trkpt lat="43.72501" lon="3.82403">
        <ele>99.9</ele>
        <time>2022-05-15T08:21:57Z</time>
      </trkpt>
      <trkpt lat="43.72475" lon="3.82382">
        <ele>101.8</ele>
        <time>2022-05-15T08:22:07Z</time>
      </trkpt>
      <trkpt lat="43.72457" lon="3.82363">
        <ele>103.5</ele>
        <time>2022-05-15T08:22:17Z</time>
      </trkpt>
      <trkpt lat="43.7244" lon="3.8234">
        <ele>103.9</ele>
        <time>2022-05-15T08:22:27Z</time>
      </trkpt>
      <trkpt lat="43.72422" lon="3.82319">
        <ele>105.5</ele>
        <time>2022-05-15T08:22:37Z</time>
      </trkpt>
      <trkpt lat="43.72407" lon="3.82289">
        <ele>105.4</ele>
        <time>2022-05-15T08:22:47Z</time>
      </trkpt>
      <trkpt lat="43.7239" lon="3.8225">
        <ele>103.9</ele>
        <time>2022-05-15T08:22:57Z</time>
      </trkpt>
      <trkpt lat="43.72358" lon="3.82224">
        <ele>105.5</ele>
        <time>2022-05-15T08:23:07Z</time>
      </trkpt>
      <trkpt lat="43.72331" lon="3.8218">
        <ele>105.9</ele>
        <time>2022-05-15T08:23:17Z</time>
      </trkpt>
      <trkpt lat="43.72299" lon="3.82143">
        <ele>105.3</ele>
        <time>2022-05-15T08:23:27Z</time>
      </trkpt>
      <trkpt lat="43.72272" lon="3.82131">
        <ele>108</ele>
        <time>2022-05-15T08:23:37Z</time>
      </trkpt>
      <trkpt lat="43.72251" lon="3.8213">
        <ele>109.3</ele>
        <time>2022-05-15T08:23:47Z</time>
      </trkpt>
      <trkpt lat="43.72228" lon="3.82129">
        <ele>110</ele>
        <time>2022-05-15T08:23:57Z</time>
      </trkpt>
      <trkpt lat="43.72208" lon="3.82124">
        <ele>110.6</ele>
        <time>2022-05-15T08:24:07Z</time>
      </trkpt>
      <trkpt lat="43.72205" lon="3.82143">
        <ele>113.6</ele>
        <time>2022-05-15T08:24:17Z</time>
      </trkpt>
      <trkpt lat="43.72199" lon="3.82155">
        <ele>115</ele>
        <time>2022-05-15T08:24:27Z</time>
      </trkpt>
      <trkpt lat="43.72194" lon="3.82167">
        <ele>116.1</ele>
        <time>2022-05-15T08:24:37Z</time>
      </trkpt>
      <trkpt lat="43.72185" lon="3.82181">
        <ele>118.4</ele>
        <time>2022-05-15T08:24:47Z</time>
      </trkpt>
      <trkpt lat="43.72181" lon="3.8219">
        <ele>119.9</ele>
        <time>2022-05-15T08:25:07Z</time>
      </trkpt>
      <trkpt lat="43.72176" lon="3.82199">
        <ele>121.6</ele>
        <time>2022-05-15T08:25:17Z</time>
      </trkpt>
      <trkpt lat="43.72172" lon="3.82209">
        <ele>123.2</ele>
        <time>2022-05-15T08:25:27Z</time>
      </trkpt>
      <trkpt lat="43.72168" lon="3.82216">
        <ele>124.3</ele>
        <time>2022-05-15T08:25:37Z</time>
      </trkpt>
      <trkpt lat="43.72164" lon="3.82226">
        <ele>125.1</ele>
        <time>2022-05-15T08:25:47Z</time>
      </trkpt>
      <trkpt lat="43.7216" lon="3.82238">
        <ele>124.9</ele>
        <time>2022-05-15T08:25:57Z</time>
      </trkpt>
      <trkpt lat="43.72136" lon="3.82229">
        <ele>127.4</ele>
        <time>2022-05-15T08:26:47Z</time>
      </trkpt>
      <trkpt lat="43.72117" lon="3.82224">
        <ele>128.6</ele>
        <time>2022-05-15T08:27:07Z</time>
      </trkpt>
      <trkpt lat="43.72098" lon="3.82218">
        <ele>129.5</ele>
        <time>2022-05-15T08:27:17Z</time>
      </trkpt>
      <trkpt lat="43.72077" lon="3.82211">
        <ele>130.6</ele>
        <time>2022-05-15T08:27:27Z</time>
      </trkpt>
      <trkpt lat="43.72057" lon="3.82203">
        <ele>131.6</ele>
        <time>2022-05-15T08:27:37Z</time>
      </trkpt>
      <trkpt lat="43.72036" lon="3.82199">
        <ele>133.1</ele>
        <time>2022-05-15T08:27:47Z</time>
      </trkpt>
      <trkpt lat="43.72016" lon="3.82192">
        <ele>134</ele>
        <time>2022-05-15T08:27:57Z</time>
      </trkpt>
      <trkpt lat="43.71991" lon="3.82183">
        <ele>134.2</ele>
        <time>2022-05-15T08:28:07Z</time>
      </trkpt>
      <trkpt lat="43.7197" lon="3.82179">
        <ele>134.4</ele>
        <time>2022-05-15T08:28:17Z</time>
      </trkpt>
      <trkpt lat="43.71961" lon="3.82176">
        <ele>134.3</ele>
        <time>2022-05-15T08:28:57Z</time>
      </trkpt>
      <trkpt lat="43.71941" lon="3.82168">
        <ele>134.2</ele>
        <time>2022-05-15T08:46:07Z</time>
      </trkpt>
      <trkpt lat="43.71916" lon="3.82152">
        <ele>134</ele>
        <time>2022-05-15T08:46:17Z</time>
      </trkpt>
      <trkpt lat="43.71888" lon="3.82139">
        <ele>135.1</ele>
        <time>2022-05-15T08:46:27Z</time>
      </trkpt>
      <trkpt lat="43.71864" lon="3.82129">
        <ele>137.3</ele>
        <time>2022-05-15T08:46:37Z</time>
      </trkpt>
      <trkpt lat="43.71844" lon="3.82124">
        <ele>139</ele>
        <time>2022-05-15T08:46:47Z</time>
      </trkpt>
      <trkpt lat="43.71826" lon="3.82118">
        <ele>140.5</ele>
        <time>2022-05-15T08:46:57Z</time>
      </trkpt>
      <trkpt lat="43.71809" lon="3.82113">
        <ele>141.7</ele>
        <time>2022-05-15T08:47:07Z</time>
      </trkpt>
      <trkpt lat="43.71792" lon="3.82108">
        <ele>143</ele>
        <time>2022-05-15T08:47:17Z</time>
      </trkpt>
      <trkpt lat="43.71774" lon="3.82104">
        <ele>144.2</ele>
        <time>2022-05-15T08:47:27Z</time>
      </trkpt>
      <trkpt lat="43.71756" lon="3.82098">
        <ele>145.2</ele>
        <time>2022-05-15T08:47:37Z</time>
      </trkpt>
      <trkpt lat="43.7174" lon="3.82094">
        <ele>146.1</ele>
        <time>2022-05-15T08:47:47Z</time>
      </trkpt>
      <trkpt lat="43.71722" lon="3.82089">
        <ele>147</ele>
        <time>2022-05-15T08:47:57Z</time>
      </trkpt>
      <trkpt lat="43.71705" lon="3.82083">
        <ele>147.6</ele>
        <time>2022-05-15T08:48:07Z</time>
      </trkpt>
      <trkpt lat="43.71688" lon="3.82073">
        <ele>147.9</ele>
        <time>2022-05-15T08:48:17Z</time>
      </trkpt>
      <trkpt lat="43.7167" lon="3.82061">
        <ele>148.1</ele>
        <time>2022-05-15T08:48:27Z</time>
      </trkpt>
      <trkpt lat="43.71655" lon="3.82069">
        <ele>148.9</ele>
        <time>2022-05-15T08:48:37Z</time>
      </trkpt>
      <trkpt lat="43.71661" lon="3.82095">
        <ele>149</ele>
        <time>2022-05-15T08:48:47Z</time>
      </trkpt>
      <trkpt lat="43.71663" lon="3.82122">
        <ele>147.2</ele>
        <time>2022-05-15T08:48:57Z</time>
      </trkpt>
      <trkpt lat="43.7168" lon="3.82139">
        <ele>145</ele>
        <time>2022-05-15T08:49:07Z</time>
      </trkpt>
      <trkpt lat="43.71707" lon="3.82156">
        <ele>141.9</ele>
        <time>2022-05-15T08:49:17Z</time>
      </trkpt>
      <trkpt lat="43.7173" lon="3.82175">
        <ele>138.3</ele>
        <time>2022-05-15T08:49:27Z</time>
      </trkpt>
      <trkpt lat="43.71727" lon="3.82205">
        <ele>131.1</ele>
        <time>2022-05-15T08:49:37Z</time>
      </trkpt>
      <trkpt lat="43.71733" lon="3.82224">
        <ele>126</ele>
        <time>2022-05-15T08:49:47Z</time>
      </trkpt>
      <trkpt lat="43.71726" lon="3.82243">
        <ele>121.6</ele>
        <time>2022-05-15T08:49:57Z</time>
      </trkpt>
      <trkpt lat="43.71707" lon="3.8224">
        <ele>122.2</ele>
        <time>2022-05-15T08:50:07Z</time>
      </trkpt>
      <trkpt lat="43.71691" lon="3.82235">
        <ele>123.1</ele>
        <time>2022-05-15T08:50:17Z</time>
      </trkpt>
      <trkpt lat="43.71674" lon="3.82229">
        <ele>123.8</ele>
        <time>2022-05-15T08:50:27Z</time>
      </trkpt>
      <trkpt lat="43.71655" lon="3.82222">
        <ele>123.8</ele>
        <time>2022-05-15T08:50:37Z</time>
      </trkpt>
      <trkpt lat="43.71633" lon="3.82214">
        <ele>123.1</ele>
        <time>2022-05-15T08:50:47Z</time>
      </trkpt>
      <trkpt lat="43.71618" lon="3.82204">
        <ele>123.7</ele>
        <time>2022-05-15T08:50:57Z</time>
      </trkpt>
      <trkpt lat="43.71602" lon="3.8221">
        <ele>121</ele>
        <time>2022-05-15T08:51:07Z</time>
      </trkpt>
      <trkpt lat="43.71601" lon="3.82224">
        <ele>117.9</ele>
        <time>2022-05-15T08:51:17Z</time>
      </trkpt>
      <trkpt lat="43.71615" lon="3.82243">
        <ele>114.8</ele>
        <time>2022-05-15T08:51:27Z</time>
      </trkpt>
      <trkpt lat="43.71617" lon="3.82273">
        <ele>108.5</ele>
        <time>2022-05-15T08:51:37Z</time>
      </trkpt>
      <trkpt lat="43.71616" lon="3.82296">
        <ele>104.6</ele>
        <time>2022-05-15T08:51:47Z</time>
      </trkpt>
      <trkpt lat="43.71613" lon="3.82322">
        <ele>101.2</ele>
        <time>2022-05-15T08:52:07Z</time>
      </trkpt>
      <trkpt lat="43.71645" lon="3.82351">
        <ele>97.4</ele>
        <time>2022-05-15T08:52:17Z</time>
      </trkpt>
      <trkpt lat="43.71671" lon="3.82391">
        <ele>94.1</ele>
        <time>2022-05-15T08:52:27Z</time>
      </trkpt>
      <trkpt lat="43.71646" lon="3.82405">
        <ele>92.8</ele>
        <time>2022-05-15T08:52:37Z</time>
      </trkpt>
      <trkpt lat="43.7161" lon="3.82424">
        <ele>91.8</ele>
        <time>2022-05-15T08:52:47Z</time>
      </trkpt>
      <trkpt lat="43.71589" lon="3.8245">
        <ele>90</ele>
        <time>2022-05-15T08:52:57Z</time>
      </trkpt>
      <trkpt lat="43.71587" lon="3.82487">
        <ele>89.5</ele>
        <time>2022-05-15T08:53:07Z</time>
      </trkpt>
      <trkpt lat="43.71569" lon="3.8252">
        <ele>89.9</ele>
        <time>2022-05-15T08:53:17Z</time>
      </trkpt>
      <trkpt lat="43.71552" lon="3.82546">
        <ele>91.4</ele>
        <time>2022-05-15T08:53:27Z</time>
      </trkpt>
      <trkpt lat="43.7153" lon="3.82563">
        <ele>96.1</ele>
        <time>2022-05-15T08:53:37Z</time>
      </trkpt>
      <trkpt lat="43.71508" lon="3.82572">
        <ele>97.2</ele>
        <time>2022-05-15T08:53:47Z</time>
      </trkpt>
      <trkpt lat="43.71485" lon="3.82582">
        <ele>94.4</ele>
        <time>2022-05-15T08:53:57Z</time>
      </trkpt>
      <trkpt lat="43.71494" lon="3.82606">
        <ele>96.3</ele>
        <time>2022-05-15T08:54:07Z</time>
      </trkpt>
      <trkpt lat="43.715" lon="3.82632">
        <ele>96.2</ele>
        <time>2022-05-15T08:54:17Z</time>
      </trkpt>
      <trkpt lat="43.71507" lon="3.82656">
        <ele>96.5</ele>
        <time>2022-05-15T08:54:27Z</time>
      </trkpt>
      <trkpt lat="43.71513" lon="3.82684">
        <ele>96.9</ele>
        <time>2022-05-15T08:54:37Z</time>
      </trkpt>
      <trkpt lat="43.71525" lon="3.82721">
        <ele>96.9</ele>
        <time>2022-05-15T08:54:47Z</time>
      </trkpt>
      <trkpt lat="43.71535" lon="3.82755">
        <ele>95.4</ele>
        <time>2022-05-15T08:54:57Z</time>
      </trkpt>
      <trkpt lat="43.71537" lon="3.82787">
        <ele>96.7</ele>
        <time>2022-05-15T08:55:07Z</time>
      </trkpt>
      <trkpt lat="43.71528" lon="3.82814">
        <ele>97</ele>
        <time>2022-05-15T08:55:17Z</time>
      </trkpt>
      <trkpt lat="43.7151" lon="3.82843">
        <ele>97.9</ele>
        <time>2022-05-15T08:55:27Z</time>
      </trkpt>
      <trkpt lat="43.71487" lon="3.82824">
        <ele>99.9</ele>
        <time>2022-05-15T08:55:37Z</time>
      </trkpt>
      <trkpt lat="43.71469" lon="3.82814">
        <ele>101.7</ele>
        <time>2022-05-15T08:55:47Z</time>
      </trkpt>
      <trkpt lat="43.71453" lon="3.82806">
        <ele>103.1</ele>
        <time>2022-05-15T08:55:57Z</time>
      </trkpt>
      <trkpt lat="43.71438" lon="3.82797">
        <ele>104.8</ele>
        <time>2022-05-15T08:56:07Z</time>
      </trkpt>
      <trkpt lat="43.71425" lon="3.82786">
        <ele>105.8</ele>
        <time>2022-05-15T08:56:17Z</time>
      </trkpt>
      <trkpt lat="43.71411" lon="3.82778">
        <ele>106.4</ele>
        <time>2022-05-15T08:56:27Z</time>
      </trkpt>
      <trkpt lat="43.71395" lon="3.82776">
        <ele>107.5</ele>
        <time>2022-05-15T08:56:37Z</time>
      </trkpt>
      <trkpt lat="43.71396" lon="3.82796">
        <ele>108.8</ele>
        <time>2022-05-15T08:56:47Z</time>
      </trkpt>
      <trkpt lat="43.7139" lon="3.82813">
        <ele>110.2</ele>
        <time>2022-05-15T08:56:57Z</time>
      </trkpt>
      <trkpt lat="43.7138" lon="3.8282">
        <ele>110.8</ele>
        <time>2022-05-15T08:57:07Z</time>
      </trkpt>
      <trkpt lat="43.71389" lon="3.82849">
        <ele>111</ele>
        <time>2022-05-15T08:57:17Z</time>
      </trkpt>
      <trkpt lat="43.71427" lon="3.82876">
        <ele>106.3</ele>
        <time>2022-05-15T08:57:27Z</time>
      </trkpt>
      <trkpt lat="43.71468" lon="3.82894">
        <ele>101.2</ele>
        <time>2022-05-15T08:57:37Z</time>
      </trkpt>
      <trkpt lat="43.71502" lon="3.82894">
        <ele>98.3</ele>
        <time>2022-05-15T08:57:47Z</time>
      </trkpt>
      <trkpt lat="43.71515" lon="3.82913">
        <ele>99.9</ele>
        <time>2022-05-15T08:57:57Z</time>
      </trkpt>
      <trkpt lat="43.71524" lon="3.82944">
        <ele>100.9</ele>
        <time>2022-05-15T08:58:07Z</time>
      </trkpt>
      <trkpt lat="43.71532" lon="3.82983">
        <ele>100.8</ele>
        <time>2022-05-15T08:58:17Z</time>
      </trkpt>
      <trkpt lat="43.71536" lon="3.83019">
        <ele>102.2</ele>
        <time>2022-05-15T08:58:27Z</time>
      </trkpt>
      <trkpt lat="43.71522" lon="3.83053">
        <ele>102.2</ele>
        <time>2022-05-15T08:58:37Z</time>
      </trkpt>
      <trkpt lat="43.71516" lon="3.83093">
        <ele>104.4</ele>
        <time>2022-05-15T08:58:47Z</time>
      </trkpt>
      <trkpt lat="43.71512" lon="3.83123">
        <ele>105.3</ele>
        <time>2022-05-15T08:58:57Z</time>
      </trkpt>
      <trkpt lat="43.71503" lon="3.83152">
        <ele>105.2</ele>
        <time>2022-05-15T08:59:07Z</time>
      </trkpt>
      <trkpt lat="43.71489" lon="3.83175">
        <ele>105.6</ele>
        <time>2022-05-15T08:59:17Z</time>
      </trkpt>
      <trkpt lat="43.71476" lon="3.832">
        <ele>106.4</ele>
        <time>2022-05-15T08:59:27Z</time>
      </trkpt>
      <trkpt lat="43.71493" lon="3.83208">
        <ele>107</ele>
        <time>2022-05-15T08:59:37Z</time>
      </trkpt>
      <trkpt lat="43.71512" lon="3.83215">
        <ele>107.6</ele>
        <time>2022-05-15T08:59:47Z</time>
      </trkpt>
      <trkpt lat="43.71521" lon="3.83236">
        <ele>109</ele>
        <time>2022-05-15T08:59:57Z</time>
      </trkpt>
      <trkpt lat="43.71537" lon="3.83251">
        <ele>110.4</ele>
        <time>2022-05-15T09:00:07Z</time>
      </trkpt>
      <trkpt lat="43.71552" lon="3.83265">
        <ele>112</ele>
        <time>2022-05-15T09:00:17Z</time>
      </trkpt>
      <trkpt lat="43.71564" lon="3.8328">
        <ele>113.4</ele>
        <time>2022-05-15T09:00:27Z</time>
      </trkpt>
      <trkpt lat="43.71575" lon="3.83295">
        <ele>114.5</ele>
        <time>2022-05-15T09:00:37Z</time>
      </trkpt>
      <trkpt lat="43.71582" lon="3.83312">
        <ele>115.2</ele>
        <time>2022-05-15T09:00:47Z</time>
      </trkpt>
      <trkpt lat="43.71601" lon="3.83321">
        <ele>114.3</ele>
        <time>2022-05-15T09:00:57Z</time>
      </trkpt>
      <trkpt lat="43.71604" lon="3.83346">
        <ele>115.9</ele>
        <time>2022-05-15T09:01:07Z</time>
      </trkpt>
      <trkpt lat="43.71622" lon="3.83377">
        <ele>116</ele>
        <time>2022-05-15T09:01:17Z</time>
      </trkpt>
      <trkpt lat="43.71617" lon="3.8342">
        <ele>117.7</ele>
        <time>2022-05-15T09:01:27Z</time>
      </trkpt>
      <trkpt lat="43.71603" lon="3.83445">
        <ele>119.6</ele>
        <time>2022-05-15T09:01:37Z</time>
      </trkpt>
      <trkpt lat="43.71591" lon="3.83467">
        <ele>119.9</ele>
        <time>2022-05-15T09:01:47Z</time>
      </trkpt>
      <trkpt lat="43.71585" lon="3.83509">
        <ele>117.2</ele>
        <time>2022-05-15T09:01:57Z</time>
      </trkpt>
      <trkpt lat="43.7156" lon="3.83544">
        <ele>116.2</ele>
        <time>2022-05-15T09:02:07Z</time>
      </trkpt>
      <trkpt lat="43.71523" lon="3.8354">
        <ele>116.2</ele>
        <time>2022-05-15T09:02:17Z</time>
      </trkpt>
      <trkpt lat="43.71501" lon="3.83523">
        <ele>118.9</ele>
        <time>2022-05-15T09:02:27Z</time>
      </trkpt>
      <trkpt lat="43.71479" lon="3.83514">
        <ele>120.1</ele>
        <time>2022-05-15T09:02:37Z</time>
      </trkpt>
      <trkpt lat="43.71461" lon="3.83498">
        <ele>122.2</ele>
        <time>2022-05-15T09:02:47Z</time>
      </trkpt>
      <trkpt lat="43.71442" lon="3.83483">
        <ele>123.7</ele>
        <time>2022-05-15T09:02:57Z</time>
      </trkpt>
      <trkpt lat="43.7142" lon="3.83469">
        <ele>125.3</ele>
        <time>2022-05-15T09:03:07Z</time>
      </trkpt>
      <trkpt lat="43.71396" lon="3.83459">
        <ele>125.7</ele>
        <time>2022-05-15T09:03:17Z</time>
      </trkpt>
      <trkpt lat="43.71371" lon="3.83451">
        <ele>126.1</ele>
        <time>2022-05-15T09:03:27Z</time>
      </trkpt>
      <trkpt lat="43.71344" lon="3.83461">
        <ele>126.5</ele>
        <time>2022-05-15T09:03:37Z</time>
      </trkpt>
      <trkpt lat="43.71329" lon="3.835">
        <ele>128</ele>
        <time>2022-05-15T09:03:47Z</time>
      </trkpt>
      <trkpt lat="43.71317" lon="3.83533">
        <ele>130.1</ele>
        <time>2022-05-15T09:03:57Z</time>
      </trkpt>
      <trkpt lat="43.71326" lon="3.83563">
        <ele>131.8</ele>
        <time>2022-05-15T09:04:07Z</time>
      </trkpt>
      <trkpt lat="43.71349" lon="3.83585">
        <ele>131.3</ele>
        <time>2022-05-15T09:04:17Z</time>
      </trkpt>
      <trkpt lat="43.71369" lon="3.83648">
        <ele>127.2</ele>
        <time>2022-05-15T09:04:27Z</time>
      </trkpt>
      <trkpt lat="43.71352" lon="3.83688">
        <ele>125.1</ele>
        <time>2022-05-15T09:04:37Z</time>
      </trkpt>
      <trkpt lat="43.7131" lon="3.83698">
        <ele>126.2</ele>
        <time>2022-05-15T09:04:47Z</time>
      </trkpt>
      <trkpt lat="43.71269" lon="3.83694">
        <ele>128</ele>
        <time>2022-05-15T09:04:57Z</time>
      </trkpt>
      <trkpt lat="43.7123" lon="3.8369">
        <ele>127.8</ele>
        <time>2022-05-15T09:05:07Z</time>
      </trkpt>
      <trkpt lat="43.7119" lon="3.83663">
        <ele>125.9</ele>
        <time>2022-05-15T09:05:17Z</time>
      </trkpt>
      <trkpt lat="43.71144" lon="3.83631">
        <ele>127.6</ele>
        <time>2022-05-15T09:05:27Z</time>
      </trkpt>
      <trkpt lat="43.71109" lon="3.83613">
        <ele>129.7</ele>
        <time>2022-05-15T09:05:37Z</time>
      </trkpt>
      <trkpt lat="43.71078" lon="3.83587">
        <ele>130.9</ele>
        <time>2022-05-15T09:05:47Z</time>
      </trkpt>
      <trkpt lat="43.71046" lon="3.83557">
        <ele>130.2</ele>
        <time>2022-05-15T09:05:57Z</time>
      </trkpt>
      <trkpt lat="43.71019" lon="3.83531">
        <ele>132</ele>
        <time>2022-05-15T09:06:07Z</time>
      </trkpt>
      <trkpt lat="43.70997" lon="3.83512">
        <ele>134.1</ele>
        <time>2022-05-15T09:06:17Z</time>
      </trkpt>
      <trkpt lat="43.70996" lon="3.83507">
        <ele>134.4</ele>
        <time>2022-05-15T09:08:37Z</time>
      </trkpt>
      <trkpt lat="43.70969" lon="3.83489">
        <ele>134.2</ele>
        <time>2022-05-15T09:08:57Z</time>
      </trkpt>
      <trkpt lat="43.70943" lon="3.83507">
        <ele>132.3</ele>
        <time>2022-05-15T09:09:07Z</time>
      </trkpt>
      <trkpt lat="43.7092" lon="3.83503">
        <ele>129.6</ele>
        <time>2022-05-15T09:09:17Z</time>
      </trkpt>
      <trkpt lat="43.70879" lon="3.83487">
        <ele>127.2</ele>
        <time>2022-05-15T09:09:37Z</time>
      </trkpt>
      <trkpt lat="43.7085" lon="3.83494">
        <ele>126.2</ele>
        <time>2022-05-15T09:09:47Z</time>
      </trkpt>
      <trkpt lat="43.70841" lon="3.83537">
        <ele>126</ele>
        <time>2022-05-15T09:09:57Z</time>
      </trkpt>
      <trkpt lat="43.7084" lon="3.8358">
        <ele>125.5</ele>
        <time>2022-05-15T09:10:07Z</time>
      </trkpt>
      <trkpt lat="43.70842" lon="3.83632">
        <ele>124.5</ele>
        <time>2022-05-15T09:10:17Z</time>
      </trkpt>
      <trkpt lat="43.70833" lon="3.83675">
        <ele>123.7</ele>
        <time>2022-05-15T09:10:27Z</time>
      </trkpt>
      <trkpt lat="43.70816" lon="3.83666">
        <ele>122.1</ele>
        <time>2022-05-15T09:10:37Z</time>
      </trkpt>
      <trkpt lat="43.70808" lon="3.83664">
        <ele>121.3</ele>
        <time>2022-05-15T09:10:47Z</time>
      </trkpt>
      <trkpt lat="43.70789" lon="3.83656">
        <ele>118.6</ele>
        <time>2022-05-15T09:10:57Z</time>
      </trkpt>
      <trkpt lat="43.70788" lon="3.83688">
        <ele>117.7</ele>
        <time>2022-05-15T09:11:07Z</time>
      </trkpt>
      <trkpt lat="43.70775" lon="3.83729">
        <ele>115.8</ele>
        <time>2022-05-15T09:11:17Z</time>
      </trkpt>
      <trkpt lat="43.70762" lon="3.8375">
        <ele>114.9</ele>
        <time>2022-05-15T09:11:27Z</time>
      </trkpt>
      <trkpt lat="43.70746" lon="3.83737">
        <ele>113.6</ele>
        <time>2022-05-15T09:11:37Z</time>
      </trkpt>
      <trkpt lat="43.70719" lon="3.83723">
        <ele>110.7</ele>
        <time>2022-05-15T09:11:47Z</time>
      </trkpt>
      <trkpt lat="43.70719" lon="3.83707">
        <ele>110.6</ele>
        <time>2022-05-15T09:11:57Z</time>
      </trkpt>
      <trkpt lat="43.70713" lon="3.83688">
        <ele>109.7</ele>
        <time>2022-05-15T09:12:07Z</time>
      </trkpt>
      <trkpt lat="43.70699" lon="3.83682">
        <ele>108</ele>
        <time>2022-05-15T09:12:27Z</time>
      </trkpt>
      <trkpt lat="43.70681" lon="3.83689">
        <ele>106.2</ele>
        <time>2022-05-15T09:12:37Z</time>
      </trkpt>
      <trkpt lat="43.7066" lon="3.83699">
        <ele>104.8</ele>
        <time>2022-05-15T09:12:47Z</time>
      </trkpt>
      <trkpt lat="43.70647" lon="3.83698">
        <ele>104.3</ele>
        <time>2022-05-15T09:12:57Z</time>
      </trkpt>
      <trkpt lat="43.7064" lon="3.8369">
        <ele>104.4</ele>
        <time>2022-05-15T09:13:07Z</time>
      </trkpt>
      <trkpt lat="43.70626" lon="3.83689">
        <ele>105.2</ele>
        <time>2022-05-15T09:13:17Z</time>
      </trkpt>
      <trkpt lat="43.70614" lon="3.83677">
        <ele>106.5</ele>
        <time>2022-05-15T09:13:27Z</time>
      </trkpt>
      <trkpt lat="43.70601" lon="3.83664">
        <ele>107.9</ele>
        <time>2022-05-15T09:13:37Z</time>
      </trkpt>
      <trkpt lat="43.70584" lon="3.83656">
        <ele>109.4</ele>
        <time>2022-05-15T09:13:57Z</time>
      </trkpt>
      <trkpt lat="43.70556" lon="3.83636">
        <ele>109.1</ele>
        <time>2022-05-15T09:14:07Z</time>
      </trkpt>
      <trkpt lat="43.7053" lon="3.83619">
        <ele>108.4</ele>
        <time>2022-05-15T09:14:17Z</time>
      </trkpt>
      <trkpt lat="43.70504" lon="3.83582">
        <ele>105.4</ele>
        <time>2022-05-15T09:14:27Z</time>
      </trkpt>
      <trkpt lat="43.70493" lon="3.83534">
        <ele>104.5</ele>
        <time>2022-05-15T09:14:37Z</time>
      </trkpt>
      <trkpt lat="43.70474" lon="3.83551">
        <ele>103.1</ele>
        <time>2022-05-15T09:14:47Z</time>
      </trkpt>
      <trkpt lat="43.70457" lon="3.83552">
        <ele>102.5</ele>
        <time>2022-05-15T09:14:57Z</time>
      </trkpt>
      <trkpt lat="43.70459" lon="3.83516">
        <ele>103.4</ele>
        <time>2022-05-15T09:15:07Z</time>
      </trkpt>
      <trkpt lat="43.70479" lon="3.83475">
        <ele>104.2</ele>
        <time>2022-05-15T09:15:17Z</time>
      </trkpt>
      <trkpt lat="43.70492" lon="3.83423">
        <ele>106.2</ele>
        <time>2022-05-15T09:15:27Z</time>
      </trkpt>
      <trkpt lat="43.70467" lon="3.834">
        <ele>107.9</ele>
        <time>2022-05-15T09:15:37Z</time>
      </trkpt>
      <trkpt lat="43.70447" lon="3.83388">
        <ele>109.9</ele>
        <time>2022-05-15T09:15:47Z</time>
      </trkpt>
      <trkpt lat="43.70429" lon="3.8338">
        <ele>111.9</ele>
        <time>2022-05-15T09:15:57Z</time>
      </trkpt>
      <trkpt lat="43.70406" lon="3.83369">
        <ele>115</ele>
        <time>2022-05-15T09:16:07Z</time>
      </trkpt>
      <trkpt lat="43.70391" lon="3.8336">
        <ele>116.9</ele>
        <time>2022-05-15T09:16:17Z</time>
      </trkpt>
      <trkpt lat="43.70369" lon="3.83353">
        <ele>118.8</ele>
        <time>2022-05-15T09:16:27Z</time>
      </trkpt>
      <trkpt lat="43.70346" lon="3.83357">
        <ele>119.7</ele>
        <time>2022-05-15T09:16:37Z</time>
      </trkpt>
      <trkpt lat="43.70321" lon="3.83343">
        <ele>120.5</ele>
        <time>2022-05-15T09:16:47Z</time>
      </trkpt>
      <trkpt lat="43.7029" lon="3.83324">
        <ele>121.7</ele>
        <time>2022-05-15T09:16:57Z</time>
      </trkpt>
      <trkpt lat="43.70261" lon="3.83312">
        <ele>122.1</ele>
        <time>2022-05-15T09:17:07Z</time>
      </trkpt>
      <trkpt lat="43.70236" lon="3.83295">
        <ele>120.6</ele>
        <time>2022-05-15T09:24:47Z</time>
      </trkpt>
      <trkpt lat="43.70189" lon="3.8328">
        <ele>116.9</ele>
        <time>2022-05-15T09:25:07Z</time>
      </trkpt>
      <trkpt lat="43.70131" lon="3.83244">
        <ele>113.5</ele>
        <time>2022-05-15T09:25:17Z</time>
      </trkpt>
      <trkpt lat="43.70083" lon="3.83223">
        <ele>113.1</ele>
        <time>2022-05-15T09:25:27Z</time>
      </trkpt>
      <trkpt lat="43.70062" lon="3.83199">
        <ele>115.5</ele>
        <time>2022-05-15T09:25:37Z</time>
      </trkpt>
      <trkpt lat="43.70062" lon="3.83153">
        <ele>115.6</ele>
        <time>2022-05-15T09:25:47Z</time>
      </trkpt>
      <trkpt lat="43.70054" lon="3.83109">
        <ele>116.1</ele>
        <time>2022-05-15T09:25:57Z</time>
      </trkpt>
      <trkpt lat="43.70057" lon="3.83052">
        <ele>114.9</ele>
        <time>2022-05-15T09:26:07Z</time>
      </trkpt>
      <trkpt lat="43.70043" lon="3.8299">
        <ele>115</ele>
        <time>2022-05-15T09:26:17Z</time>
      </trkpt>
      <trkpt lat="43.70028" lon="3.8294">
        <ele>116</ele>
        <time>2022-05-15T09:26:27Z</time>
      </trkpt>
      <trkpt lat="43.70008" lon="3.82947">
        <ele>117.3</ele>
        <time>2022-05-15T09:26:37Z</time>
      </trkpt>
      <trkpt lat="43.69991" lon="3.82972">
        <ele>117.7</ele>
        <time>2022-05-15T09:26:47Z</time>
      </trkpt>
      <trkpt lat="43.69969" lon="3.82998">
        <ele>118.8</ele>
        <time>2022-05-15T09:26:57Z</time>
      </trkpt>
      <trkpt lat="43.69933" lon="3.83001">
        <ele>116.2</ele>
        <time>2022-05-15T09:27:07Z</time>
      </trkpt>
      <trkpt lat="43.69888" lon="3.83023">
        <ele>113.1</ele>
        <time>2022-05-15T09:27:17Z</time>
      </trkpt>
      <trkpt lat="43.69849" lon="3.83067">
        <ele>109.6</ele>
        <time>2022-05-15T09:27:27Z</time>
      </trkpt>
      <trkpt lat="43.69829" lon="3.8306">
        <ele>109.5</ele>
        <time>2022-05-15T09:27:37Z</time>
      </trkpt>
      <trkpt lat="43.69815" lon="3.83021">
        <ele>112</ele>
        <time>2022-05-15T09:27:47Z</time>
      </trkpt>
      <trkpt lat="43.69805" lon="3.83">
        <ele>113</ele>
        <time>2022-05-15T09:27:57Z</time>
      </trkpt>
      <trkpt lat="43.6979" lon="3.82979">
        <ele>112.6</ele>
        <time>2022-05-15T09:28:07Z</time>
      </trkpt>
      <trkpt lat="43.69772" lon="3.82945">
        <ele>110.6</ele>
        <time>2022-05-15T09:28:17Z</time>
      </trkpt>
      <trkpt lat="43.6976" lon="3.82898">
        <ele>106.2</ele>
        <time>2022-05-15T09:28:27Z</time>
      </trkpt>
      <trkpt lat="43.69725" lon="3.82862">
        <ele>105.1</ele>
        <time>2022-05-15T09:28:37Z</time>
      </trkpt>
      <trkpt lat="43.69714" lon="3.82829">
        <ele>106.9</ele>
        <time>2022-05-15T09:28:47Z</time>
      </trkpt>
      <trkpt lat="43.69693" lon="3.82807">
        <ele>107.9</ele>
        <time>2022-05-15T09:28:57Z</time>
      </trkpt>
      <trkpt lat="43.69664" lon="3.82798">
        <ele>108</ele>
        <time>2022-05-15T09:29:07Z</time>
      </trkpt>
      <trkpt lat="43.69644" lon="3.82774">
        <ele>105.7</ele>
        <time>2022-05-15T09:29:17Z</time>
      </trkpt>
      <trkpt lat="43.6961" lon="3.82739">
        <ele>103.8</ele>
        <time>2022-05-15T09:29:27Z</time>
      </trkpt>
      <trkpt lat="43.69597" lon="3.82704">
        <ele>106.3</ele>
        <time>2022-05-15T09:29:37Z</time>
      </trkpt>
      <trkpt lat="43.69577" lon="3.82695">
        <ele>107.2</ele>
        <time>2022-05-15T09:29:47Z</time>
      </trkpt>
      <trkpt lat="43.69555" lon="3.82702">
        <ele>108.3</ele>
        <time>2022-05-15T09:29:57Z</time>
      </trkpt>
      <trkpt lat="43.69523" lon="3.82712">
        <ele>108.4</ele>
        <time>2022-05-15T09:30:07Z</time>
      </trkpt>
      <trkpt lat="43.69484" lon="3.82724">
        <ele>106.9</ele>
        <time>2022-05-15T09:30:17Z</time>
      </trkpt>
      <trkpt lat="43.69453" lon="3.82694">
        <ele>104.3</ele>
        <time>2022-05-15T09:30:27Z</time>
      </trkpt>
      <trkpt lat="43.69407" lon="3.82684">
        <ele>103.2</ele>
        <time>2022-05-15T09:30:37Z</time>
      </trkpt>
      <trkpt lat="43.69359" lon="3.82669">
        <ele>102.9</ele>
        <time>2022-05-15T09:30:47Z</time>
      </trkpt>
      <trkpt lat="43.69318" lon="3.82661">
        <ele>103.4</ele>
        <time>2022-05-15T09:30:57Z</time>
      </trkpt>
      <trkpt lat="43.69288" lon="3.82639">
        <ele>103.4</ele>
        <time>2022-05-15T09:31:07Z</time>
      </trkpt>
      <trkpt lat="43.69255" lon="3.8263">
        <ele>104.8</ele>
        <time>2022-05-15T09:31:17Z</time>
      </trkpt>
      <trkpt lat="43.69231" lon="3.82622">
        <ele>106.8</ele>
        <time>2022-05-15T09:31:27Z</time>
      </trkpt>
      <trkpt lat="43.69216" lon="3.8261">
        <ele>108.2</ele>
        <time>2022-05-15T09:31:37Z</time>
      </trkpt>
      <trkpt lat="43.69196" lon="3.82599">
        <ele>109.7</ele>
        <time>2022-05-15T09:31:47Z</time>
      </trkpt>
      <trkpt lat="43.69173" lon="3.82585">
        <ele>111.7</ele>
        <time>2022-05-15T09:31:57Z</time>
      </trkpt>
      <trkpt lat="43.69148" lon="3.82576">
        <ele>111.4</ele>
        <time>2022-05-15T09:32:07Z</time>
      </trkpt>
      <trkpt lat="43.69109" lon="3.82552">
        <ele>108.9</ele>
        <time>2022-05-15T09:32:17Z</time>
      </trkpt>
      <trkpt lat="43.6907" lon="3.82527">
        <ele>111.9</ele>
        <time>2022-05-15T09:32:27Z</time>
      </trkpt>
      <trkpt lat="43.6904" lon="3.82509">
        <ele>112.4</ele>
        <time>2022-05-15T09:32:37Z</time>
      </trkpt>
      <trkpt lat="43.69011" lon="3.82492">
        <ele>111.9</ele>
        <time>2022-05-15T09:32:47Z</time>
      </trkpt>
      <trkpt lat="43.68979" lon="3.82471">
        <ele>108.8</ele>
        <time>2022-05-15T09:32:57Z</time>
      </trkpt>
      <trkpt lat="43.68932" lon="3.82443">
        <ele>101.1</ele>
        <time>2022-05-15T09:33:07Z</time>
      </trkpt>
      <trkpt lat="43.68879" lon="3.8244">
        <ele>98.8</ele>
        <time>2022-05-15T09:33:17Z</time>
      </trkpt>
      <trkpt lat="43.68837" lon="3.82444">
        <ele>98</ele>
        <time>2022-05-15T09:33:27Z</time>
      </trkpt>
      <trkpt lat="43.68803" lon="3.82459">
        <ele>97.5</ele>
        <time>2022-05-15T09:33:37Z</time>
      </trkpt>
      <trkpt lat="43.68775" lon="3.82438">
        <ele>96.2</ele>
        <time>2022-05-15T09:33:47Z</time>
      </trkpt>
      <trkpt lat="43.68757" lon="3.82413">
        <ele>96.4</ele>
        <time>2022-05-15T09:33:57Z</time>
      </trkpt>
      <trkpt lat="43.68741" lon="3.82381">
        <ele>96.9</ele>
        <time>2022-05-15T09:34:07Z</time>
      </trkpt>
      <trkpt lat="43.68716" lon="3.82355">
        <ele>96.4</ele>
        <time>2022-05-15T09:34:17Z</time>
      </trkpt>
      <trkpt lat="43.68688" lon="3.82332">
        <ele>96.9</ele>
        <time>2022-05-15T09:34:27Z</time>
      </trkpt>
      <trkpt lat="43.68653" lon="3.82312">
        <ele>96.3</ele>
        <time>2022-05-15T09:34:37Z</time>
      </trkpt>
      <trkpt lat="43.68613" lon="3.82296">
        <ele>95.1</ele>
        <time>2022-05-15T09:34:47Z</time>
      </trkpt>
      <trkpt lat="43.68574" lon="3.82282">
        <ele>94.6</ele>
        <time>2022-05-15T09:34:57Z</time>
      </trkpt>
      <trkpt lat="43.68535" lon="3.82267">
        <ele>94.1</ele>
        <time>2022-05-15T09:35:07Z</time>
      </trkpt>
      <trkpt lat="43.68494" lon="3.82252">
        <ele>93.8</ele>
        <time>2022-05-15T09:35:17Z</time>
      </trkpt>
      <trkpt lat="43.68455" lon="3.82242">
        <ele>93.7</ele>
        <time>2022-05-15T09:35:27Z</time>
      </trkpt>
      <trkpt lat="43.68417" lon="3.82234">
        <ele>93</ele>
        <time>2022-05-15T09:35:37Z</time>
      </trkpt>
      <trkpt lat="43.68378" lon="3.82225">
        <ele>93.4</ele>
        <time>2022-05-15T09:35:47Z</time>
      </trkpt>
      <trkpt lat="43.68343" lon="3.82219">
        <ele>94</ele>
        <time>2022-05-15T09:35:57Z</time>
      </trkpt>
      <trkpt lat="43.68309" lon="3.82212">
        <ele>94</ele>
        <time>2022-05-15T09:36:07Z</time>
      </trkpt>
      <trkpt lat="43.68276" lon="3.82207">
        <ele>95</ele>
        <time>2022-05-15T09:36:17Z</time>
      </trkpt>
      <trkpt lat="43.68244" lon="3.82202">
        <ele>94.9</ele>
        <time>2022-05-15T09:36:27Z</time>
      </trkpt>
      <trkpt lat="43.6821" lon="3.82197">
        <ele>95.3</ele>
        <time>2022-05-15T09:36:37Z</time>
      </trkpt>
      <trkpt lat="43.68181" lon="3.82194">
        <ele>96</ele>
        <time>2022-05-15T09:36:47Z</time>
      </trkpt>
      <trkpt lat="43.68144" lon="3.8219">
        <ele>96.2</ele>
        <time>2022-05-15T09:36:57Z</time>
      </trkpt>
      <trkpt lat="43.68106" lon="3.82187">
        <ele>96.3</ele>
        <time>2022-05-15T09:37:07Z</time>
      </trkpt>
      <trkpt lat="43.68068" lon="3.82184">
        <ele>96.7</ele>
        <time>2022-05-15T09:37:17Z</time>
      </trkpt>
      <trkpt lat="43.68038" lon="3.82181">
        <ele>97</ele>
        <time>2022-05-15T09:37:27Z</time>
      </trkpt>
      <trkpt lat="43.68006" lon="3.82177">
        <ele>97.8</ele>
        <time>2022-05-15T09:37:37Z</time>
      </trkpt>
      <trkpt lat="43.67981" lon="3.82173">
        <ele>99.5</ele>
        <time>2022-05-15T09:37:47Z</time>
      </trkpt>
      <trkpt lat="43.67965" lon="3.82191">
        <ele>101.6</ele>
        <time>2022-05-15T09:37:57Z</time>
      </trkpt>
      <trkpt lat="43.67979" lon="3.82225">
        <ele>102</ele>
        <time>2022-05-15T09:38:07Z</time>
      </trkpt>
      <trkpt lat="43.6801" lon="3.82253">
        <ele>101.2</ele>
        <time>2022-05-15T09:38:17Z</time>
      </trkpt>
      <trkpt lat="43.68039" lon="3.82281">
        <ele>101.3</ele>
        <time>2022-05-15T09:38:27Z</time>
      </trkpt>
      <trkpt lat="43.68067" lon="3.82311">
        <ele>101.8</ele>
        <time>2022-05-15T09:38:37Z</time>
      </trkpt>
      <trkpt lat="43.68082" lon="3.82348">
        <ele>104.5</ele>
        <time>2022-05-15T09:38:47Z</time>
      </trkpt>
      <trkpt lat="43.68089" lon="3.82368">
        <ele>106.5</ele>
        <time>2022-05-15T09:38:57Z</time>
      </trkpt>
      <trkpt lat="43.68095" lon="3.82385">
        <ele>108.4</ele>
        <time>2022-05-15T09:39:07Z</time>
      </trkpt>
      <trkpt lat="43.68093" lon="3.82401">
        <ele>110.6</ele>
        <time>2022-05-15T09:39:17Z</time>
      </trkpt>
      <trkpt lat="43.68085" lon="3.82411">
        <ele>112.6</ele>
        <time>2022-05-15T09:39:27Z</time>
      </trkpt>
      <trkpt lat="43.68076" lon="3.82416">
        <ele>114</ele>
        <time>2022-05-15T09:39:37Z</time>
      </trkpt>
      <trkpt lat="43.68066" lon="3.82416">
        <ele>115.5</ele>
        <time>2022-05-15T09:39:47Z</time>
      </trkpt>
      <trkpt lat="43.68056" lon="3.82413">
        <ele>117.1</ele>
        <time>2022-05-15T09:39:57Z</time>
      </trkpt>
      <trkpt lat="43.68046" lon="3.8241">
        <ele>117.9</ele>
        <time>2022-05-15T09:40:07Z</time>
      </trkpt>
      <trkpt lat="43.68033" lon="3.82406">
        <ele>119</ele>
        <time>2022-05-15T09:40:17Z</time>
      </trkpt>
      <trkpt lat="43.68016" lon="3.824">
        <ele>120</ele>
        <time>2022-05-15T09:40:27Z</time>
      </trkpt>
      <trkpt lat="43.67998" lon="3.82395">
        <ele>120.8</ele>
        <time>2022-05-15T09:40:37Z</time>
      </trkpt>
      <trkpt lat="43.67979" lon="3.82387">
        <ele>121.8</ele>
        <time>2022-05-15T09:40:47Z</time>
      </trkpt>
      <trkpt lat="43.67961" lon="3.82372">
        <ele>122</ele>
        <time>2022-05-15T09:40:57Z</time>
      </trkpt>
      <trkpt lat="43.67942" lon="3.82347">
        <ele>122</ele>
        <time>2022-05-15T09:41:07Z</time>
      </trkpt>
      <trkpt lat="43.67925" lon="3.82317">
        <ele>121.8</ele>
        <time>2022-05-15T09:41:17Z</time>
      </trkpt>
      <trkpt lat="43.67907" lon="3.82286">
        <ele>121.9</ele>
        <time>2022-05-15T09:41:27Z</time>
      </trkpt>
      <trkpt lat="43.67886" lon="3.82249">
        <ele>122.1</ele>
        <time>2022-05-15T09:41:37Z</time>
      </trkpt>
      <trkpt lat="43.67856" lon="3.82221">
        <ele>123.2</ele>
        <time>2022-05-15T09:41:47Z</time>
      </trkpt>
      <trkpt lat="43.67819" lon="3.82205">
        <ele>124.3</ele>
        <time>2022-05-15T09:41:57Z</time>
      </trkpt>
      <trkpt lat="43.67781" lon="3.82191">
        <ele>124</ele>
        <time>2022-05-15T09:42:07Z</time>
      </trkpt>
      <trkpt lat="43.67743" lon="3.82181">
        <ele>125.1</ele>
        <time>2022-05-15T09:42:17Z</time>
      </trkpt>
      <trkpt lat="43.67705" lon="3.82176">
        <ele>124.2</ele>
        <time>2022-05-15T09:42:27Z</time>
      </trkpt>
      <trkpt lat="43.67667" lon="3.82176">
        <ele>124</ele>
        <time>2022-05-15T09:42:37Z</time>
      </trkpt>
      <trkpt lat="43.67638" lon="3.8217">
        <ele>125.3</ele>
        <time>2022-05-15T09:42:47Z</time>
      </trkpt>
      <trkpt lat="43.67608" lon="3.82169">
        <ele>124.3</ele>
        <time>2022-05-15T09:42:57Z</time>
      </trkpt>
      <trkpt lat="43.67581" lon="3.82173">
        <ele>125</ele>
        <time>2022-05-15T09:43:07Z</time>
      </trkpt>
      <trkpt lat="43.67565" lon="3.82126">
        <ele>123.3</ele>
        <time>2022-05-15T09:43:17Z</time>
      </trkpt>
      <trkpt lat="43.67547" lon="3.82119">
        <ele>125.6</ele>
        <time>2022-05-15T09:43:27Z</time>
      </trkpt>
      <trkpt lat="43.67533" lon="3.82118">
        <ele>127.7</ele>
        <time>2022-05-15T09:43:37Z</time>
      </trkpt>
      <trkpt lat="43.67519" lon="3.82102">
        <ele>128.3</ele>
        <time>2022-05-15T09:43:47Z</time>
      </trkpt>
      <trkpt lat="43.67505" lon="3.82101">
        <ele>130.3</ele>
        <time>2022-05-15T09:43:57Z</time>
      </trkpt>
      <trkpt lat="43.67489" lon="3.82103">
        <ele>132</ele>
        <time>2022-05-15T09:44:07Z</time>
      </trkpt>
      <trkpt lat="43.67474" lon="3.82105">
        <ele>133.4</ele>
        <time>2022-05-15T09:44:17Z</time>
      </trkpt>
      <trkpt lat="43.6746" lon="3.82107">
        <ele>134.6</ele>
        <time>2022-05-15T09:44:27Z</time>
      </trkpt>
      <trkpt lat="43.67444" lon="3.82108">
        <ele>135.9</ele>
        <time>2022-05-15T09:44:37Z</time>
      </trkpt>
      <trkpt lat="43.67428" lon="3.82108">
        <ele>137.6</ele>
        <time>2022-05-15T09:44:47Z</time>
      </trkpt>
      <trkpt lat="43.67411" lon="3.82104">
        <ele>138.3</ele>
        <time>2022-05-15T09:44:57Z</time>
      </trkpt>
      <trkpt lat="43.6739" lon="3.82099">
        <ele>136.5</ele>
        <time>2022-05-15T09:45:07Z</time>
      </trkpt>
      <trkpt lat="43.67367" lon="3.82102">
        <ele>137</ele>
        <time>2022-05-15T09:45:17Z</time>
      </trkpt>
      <trkpt lat="43.67329" lon="3.82103">
        <ele>134.9</ele>
        <time>2022-05-15T09:45:27Z</time>
      </trkpt>
      <trkpt lat="43.67309" lon="3.82118">
        <ele>134</ele>
        <time>2022-05-15T09:45:37Z</time>
      </trkpt>
      <trkpt lat="43.67271" lon="3.82138">
        <ele>130.8</ele>
        <time>2022-05-15T09:45:47Z</time>
      </trkpt>
      <trkpt lat="43.67238" lon="3.82164">
        <ele>128.7</ele>
        <time>2022-05-15T09:45:57Z</time>
      </trkpt>
      <trkpt lat="43.6722" lon="3.82174">
        <ele>127.1</ele>
        <time>2022-05-15T09:46:27Z</time>
      </trkpt>
      <trkpt lat="43.67201" lon="3.82204">
        <ele>124</ele>
        <time>2022-05-15T09:46:47Z</time>
      </trkpt>
      <trkpt lat="43.67165" lon="3.82256">
        <ele>120</ele>
        <time>2022-05-15T09:46:57Z</time>
      </trkpt>
      <trkpt lat="43.6714" lon="3.82296">
        <ele>118.8</ele>
        <time>2022-05-15T09:47:07Z</time>
      </trkpt>
      <trkpt lat="43.67119" lon="3.8233">
        <ele>118.2</ele>
        <time>2022-05-15T09:47:17Z</time>
      </trkpt>
      <trkpt lat="43.6709" lon="3.82375">
        <ele>115.3</ele>
        <time>2022-05-15T09:47:27Z</time>
      </trkpt>
      <trkpt lat="43.67065" lon="3.82421">
        <ele>111.7</ele>
        <time>2022-05-15T09:47:37Z</time>
      </trkpt>
      <trkpt lat="43.6704" lon="3.82462">
        <ele>110.6</ele>
        <time>2022-05-15T09:47:47Z</time>
      </trkpt>
      <trkpt lat="43.67012" lon="3.82495">
        <ele>109</ele>
        <time>2022-05-15T09:47:57Z</time>
      </trkpt>
      <trkpt lat="43.66973" lon="3.82533">
        <ele>108.8</ele>
        <time>2022-05-15T09:48:07Z</time>
      </trkpt>
      <trkpt lat="43.66937" lon="3.82564">
        <ele>109.2</ele>
        <time>2022-05-15T09:48:17Z</time>
      </trkpt>
      <trkpt lat="43.66905" lon="3.82592">
        <ele>109.6</ele>
        <time>2022-05-15T09:48:27Z</time>
      </trkpt>
      <trkpt lat="43.66875" lon="3.82621">
        <ele>110</ele>
        <time>2022-05-15T09:48:37Z</time>
      </trkpt>
      <trkpt lat="43.66855" lon="3.8264">
        <ele>111.2</ele>
        <time>2022-05-15T09:48:47Z</time>
      </trkpt>
      <trkpt lat="43.66834" lon="3.82656">
        <ele>113.5</ele>
        <time>2022-05-15T09:48:57Z</time>
      </trkpt>
      <trkpt lat="43.66815" lon="3.82671">
        <ele>113.3</ele>
        <time>2022-05-15T09:49:07Z</time>
      </trkpt>
      <trkpt lat="43.66784" lon="3.82699">
        <ele>113.8</ele>
        <time>2022-05-15T09:49:17Z</time>
      </trkpt>
      <trkpt lat="43.66755" lon="3.82723">
        <ele>113.7</ele>
        <time>2022-05-15T09:49:27Z</time>
      </trkpt>
      <trkpt lat="43.66729" lon="3.82747">
        <ele>114.5</ele>
        <time>2022-05-15T09:49:37Z</time>
      </trkpt>
      <trkpt lat="43.66713" lon="3.82783">
        <ele>115.9</ele>
        <time>2022-05-15T09:49:47Z</time>
      </trkpt>
      <trkpt lat="43.66703" lon="3.82817">
        <ele>117.2</ele>
        <time>2022-05-15T09:49:57Z</time>
      </trkpt>
      <trkpt lat="43.66693" lon="3.82849">
        <ele>118</ele>
        <time>2022-05-15T09:50:07Z</time>
      </trkpt>
      <trkpt lat="43.66689" lon="3.82874">
        <ele>119.3</ele>
        <time>2022-05-15T09:50:17Z</time>
      </trkpt>
      <trkpt lat="43.66686" lon="3.82899">
        <ele>120.5</ele>
        <time>2022-05-15T09:50:27Z</time>
      </trkpt>
      <trkpt lat="43.6668" lon="3.8293">
        <ele>120.4</ele>
        <time>2022-05-15T09:50:37Z</time>
      </trkpt>
      <trkpt lat="43.66683" lon="3.82962">
        <ele>120.8</ele>
        <time>2022-05-15T09:50:47Z</time>
      </trkpt>
      <trkpt lat="43.66685" lon="3.83008">
        <ele>120</ele>
        <time>2022-05-15T09:50:57Z</time>
      </trkpt>
      <trkpt lat="43.66696" lon="3.83042">
        <ele>119.1</ele>
        <time>2022-05-15T09:51:07Z</time>
      </trkpt>
      <trkpt lat="43.66705" lon="3.83069">
        <ele>117.9</ele>
        <time>2022-05-15T09:51:17Z</time>
      </trkpt>
      <trkpt lat="43.66724" lon="3.83099">
        <ele>116.4</ele>
        <time>2022-05-15T09:51:27Z</time>
      </trkpt>
      <trkpt lat="43.66699" lon="3.83125">
        <ele>115.8</ele>
        <time>2022-05-15T09:51:37Z</time>
      </trkpt>
      <trkpt lat="43.66716" lon="3.83136">
        <ele>113.7</ele>
        <time>2022-05-15T09:51:47Z</time>
      </trkpt>
      <trkpt lat="43.66733" lon="3.8318">
        <ele>109.7</ele>
        <time>2022-05-15T09:51:57Z</time>
      </trkpt>
      <trkpt lat="43.66745" lon="3.83225">
        <ele>103.8</ele>
        <time>2022-05-15T09:52:07Z</time>
      </trkpt>
      <trkpt lat="43.66765" lon="3.83235">
        <ele>100.7</ele>
        <time>2022-05-15T09:52:17Z</time>
      </trkpt>
      <trkpt lat="43.66797" lon="3.83257">
        <ele>96.6</ele>
        <time>2022-05-15T09:52:27Z</time>
      </trkpt>
      <trkpt lat="43.66805" lon="3.83308">
        <ele>94.8</ele>
        <time>2022-05-15T09:52:37Z</time>
      </trkpt>
      <trkpt lat="43.66782" lon="3.83355">
        <ele>92</ele>
        <time>2022-05-15T09:52:47Z</time>
      </trkpt>
      <trkpt lat="43.66746" lon="3.83405">
        <ele>89.5</ele>
        <time>2022-05-15T09:52:57Z</time>
      </trkpt>
      <trkpt lat="43.66748" lon="3.8347">
        <ele>86.4</ele>
        <time>2022-05-15T09:53:07Z</time>
      </trkpt>
      <trkpt lat="43.6676" lon="3.83538">
        <ele>86.6</ele>
        <time>2022-05-15T09:53:17Z</time>
      </trkpt>
      <trkpt lat="43.66783" lon="3.83554">
        <ele>83.4</ele>
        <time>2022-05-15T09:53:27Z</time>
      </trkpt>
      <trkpt lat="43.66814" lon="3.83565">
        <ele>81.3</ele>
        <time>2022-05-15T09:53:37Z</time>
      </trkpt>
      <trkpt lat="43.66824" lon="3.83595">
        <ele>82.4</ele>
        <time>2022-05-15T09:53:47Z</time>
      </trkpt>
      <trkpt lat="43.66828" lon="3.83626">
        <ele>83.4</ele>
        <time>2022-05-15T09:53:57Z</time>
      </trkpt>
      <trkpt lat="43.66835" lon="3.83679">
        <ele>82.3</ele>
        <time>2022-05-15T09:54:07Z</time>
      </trkpt>
      <trkpt lat="43.66821" lon="3.83723">
        <ele>82.3</ele>
        <time>2022-05-15T09:54:17Z</time>
      </trkpt>
      <trkpt lat="43.66801" lon="3.83757">
        <ele>83</ele>
        <time>2022-05-15T09:54:27Z</time>
      </trkpt>
      <trkpt lat="43.66779" lon="3.83767">
        <ele>85.2</ele>
        <time>2022-05-15T09:54:37Z</time>
      </trkpt>
      <trkpt lat="43.6676" lon="3.83771">
        <ele>86.9</ele>
        <time>2022-05-15T09:54:47Z</time>
      </trkpt>
      <trkpt lat="43.66746" lon="3.83775">
        <ele>87.9</ele>
        <time>2022-05-15T09:54:57Z</time>
      </trkpt>
      <trkpt lat="43.66727" lon="3.83779">
        <ele>88.1</ele>
        <time>2022-05-15T09:55:07Z</time>
      </trkpt>
      <trkpt lat="43.66707" lon="3.83794">
        <ele>89.7</ele>
        <time>2022-05-15T09:55:17Z</time>
      </trkpt>
      <trkpt lat="43.66682" lon="3.83806">
        <ele>89.6</ele>
        <time>2022-05-15T09:55:27Z</time>
      </trkpt>
      <trkpt lat="43.66655" lon="3.83825">
        <ele>89.7</ele>
        <time>2022-05-15T09:55:37Z</time>
      </trkpt>
      <trkpt lat="43.6665" lon="3.83854">
        <ele>90.7</ele>
        <time>2022-05-15T09:55:47Z</time>
      </trkpt>
      <trkpt lat="43.66645" lon="3.83894">
        <ele>90.3</ele>
        <time>2022-05-15T09:55:57Z</time>
      </trkpt>
      <trkpt lat="43.66651" lon="3.8393">
        <ele>89.2</ele>
        <time>2022-05-15T09:56:07Z</time>
      </trkpt>
      <trkpt lat="43.66653" lon="3.83964">
        <ele>85.7</ele>
        <time>2022-05-15T09:56:17Z</time>
      </trkpt>
      <trkpt lat="43.66641" lon="3.83984">
        <ele>82.9</ele>
        <time>2022-05-15T09:56:27Z</time>
      </trkpt>
      <trkpt lat="43.66628" lon="3.83969">
        <ele>82.6</ele>
        <time>2022-05-15T09:56:37Z</time>
      </trkpt>
      <trkpt lat="43.6662" lon="3.83943">
        <ele>86.1</ele>
        <time>2022-05-15T09:56:47Z</time>
      </trkpt>
      <trkpt lat="43.66612" lon="3.83922">
        <ele>87.5</ele>
        <time>2022-05-15T09:56:57Z</time>
      </trkpt>
      <trkpt lat="43.66596" lon="3.839">
        <ele>86.9</ele>
        <time>2022-05-15T09:57:07Z</time>
      </trkpt>
      <trkpt lat="43.66589" lon="3.83861">
        <ele>87.8</ele>
        <time>2022-05-15T09:57:17Z</time>
      </trkpt>
      <trkpt lat="43.66578" lon="3.83804">
        <ele>84.3</ele>
        <time>2022-05-15T09:57:27Z</time>
      </trkpt>
      <trkpt lat="43.66536" lon="3.83834">
        <ele>79.3</ele>
        <time>2022-05-15T09:57:37Z</time>
      </trkpt>
      <trkpt lat="43.6648" lon="3.83847">
        <ele>77.7</ele>
        <time>2022-05-15T09:57:47Z</time>
      </trkpt>
      <trkpt lat="43.66425" lon="3.8386">
        <ele>75.4</ele>
        <time>2022-05-15T09:57:57Z</time>
      </trkpt>
      <trkpt lat="43.66373" lon="3.83897">
        <ele>72.2</ele>
        <time>2022-05-15T09:58:07Z</time>
      </trkpt>
      <trkpt lat="43.66319" lon="3.8393">
        <ele>67.7</ele>
        <time>2022-05-15T09:58:17Z</time>
      </trkpt>
      <trkpt lat="43.6629" lon="3.83948">
        <ele>66.8</ele>
        <time>2022-05-15T09:58:27Z</time>
      </trkpt>
      <trkpt lat="43.66303" lon="3.83987">
        <ele>65.4</ele>
        <time>2022-05-15T09:58:37Z</time>
      </trkpt>
      <trkpt lat="43.66304" lon="3.84043">
        <ele>64.9</ele>
        <time>2022-05-15T09:58:47Z</time>
      </trkpt>
      <trkpt lat="43.6629" lon="3.84096">
        <ele>63.2</ele>
        <time>2022-05-15T09:58:57Z</time>
      </trkpt>
      <trkpt lat="43.66285" lon="3.84162">
        <ele>62</ele>
        <time>2022-05-15T09:59:07Z</time>
      </trkpt>
      <trkpt lat="43.66279" lon="3.84235">
        <ele>60.6</ele>
        <time>2022-05-15T09:59:17Z</time>
      </trkpt>
      <trkpt lat="43.66254" lon="3.84302">
        <ele>59.7</ele>
        <time>2022-05-15T09:59:27Z</time>
      </trkpt>
      <trkpt lat="43.66221" lon="3.84359">
        <ele>59</ele>
        <time>2022-05-15T09:59:37Z</time>
      </trkpt>
      <trkpt lat="43.66196" lon="3.84418">
        <ele>58.8</ele>
        <time>2022-05-15T09:59:47Z</time>
      </trkpt>
      <trkpt lat="43.6615" lon="3.84453">
        <ele>58.9</ele>
        <time>2022-05-15T09:59:57Z</time>
      </trkpt>
      <trkpt lat="43.66111" lon="3.84488">
        <ele>59</ele>
        <time>2022-05-15T10:00:07Z</time>
      </trkpt>
      <trkpt lat="43.66081" lon="3.84529">
        <ele>59.8</ele>
        <time>2022-05-15T10:00:17Z</time>
      </trkpt>
      <trkpt lat="43.66065" lon="3.84583">
        <ele>62</ele>
        <time>2022-05-15T10:00:27Z</time>
      </trkpt>
      <trkpt lat="43.66048" lon="3.84645">
        <ele>61.7</ele>
        <time>2022-05-15T10:00:37Z</time>
      </trkpt>
      <trkpt lat="43.66028" lon="3.84704">
        <ele>59.6</ele>
        <time>2022-05-15T10:00:47Z</time>
      </trkpt>
      <trkpt lat="43.66005" lon="3.84752">
        <ele>58.8</ele>
        <time>2022-05-15T10:00:57Z</time>
      </trkpt>
      <trkpt lat="43.6597" lon="3.84797">
        <ele>57.2</ele>
        <time>2022-05-15T10:01:07Z</time>
      </trkpt>
      <trkpt lat="43.65968" lon="3.84832">
        <ele>54.4</ele>
        <time>2022-05-15T10:01:17Z</time>
      </trkpt>
      <trkpt lat="43.65999" lon="3.84867">
        <ele>55</ele>
        <time>2022-05-15T10:01:27Z</time>
      </trkpt>
      <trkpt lat="43.66034" lon="3.84837">
        <ele>55.2</ele>
        <time>2022-05-15T10:01:37Z</time>
      </trkpt>
      <trkpt lat="43.66068" lon="3.84802">
        <ele>55.4</ele>
        <time>2022-05-15T10:01:47Z</time>
      </trkpt>
      <trkpt lat="43.66103" lon="3.84766">
        <ele>56.4</ele>
        <time>2022-05-15T10:01:57Z</time>
      </trkpt>
      <trkpt lat="43.66142" lon="3.84737">
        <ele>56.6</ele>
        <time>2022-05-15T10:02:07Z</time>
      </trkpt>
      <trkpt lat="43.66181" lon="3.84721">
        <ele>57.5</ele>
        <time>2022-05-15T10:02:17Z</time>
      </trkpt>
      <trkpt lat="43.66221" lon="3.84703">
        <ele>58.3</ele>
        <time>2022-05-15T10:02:27Z</time>
      </trkpt>
      <trkpt lat="43.66256" lon="3.84671">
        <ele>59.6</ele>
        <time>2022-05-15T10:02:37Z</time>
      </trkpt>
      <trkpt lat="43.66286" lon="3.84639">
        <ele>60.6</ele>
        <time>2022-05-15T10:02:47Z</time>
      </trkpt>
      <trkpt lat="43.66318" lon="3.84611">
        <ele>62.4</ele>
        <time>2022-05-15T10:02:57Z</time>
      </trkpt>
      <trkpt lat="43.66351" lon="3.84589">
        <ele>62.8</ele>
        <time>2022-05-15T10:03:07Z</time>
      </trkpt>
      <trkpt lat="43.66369" lon="3.84625">
        <ele>64.6</ele>
        <time>2022-05-15T10:03:17Z</time>
      </trkpt>
      <trkpt lat="43.66383" lon="3.84672">
        <ele>64.8</ele>
        <time>2022-05-15T10:03:27Z</time>
      </trkpt>
      <trkpt lat="43.66402" lon="3.84714">
        <ele>65.5</ele>
        <time>2022-05-15T10:03:37Z</time>
      </trkpt>
      <trkpt lat="43.66427" lon="3.84756">
        <ele>66.7</ele>
        <time>2022-05-15T10:03:47Z</time>
      </trkpt>
      <trkpt lat="43.66445" lon="3.84803">
        <ele>68</ele>
        <time>2022-05-15T10:03:57Z</time>
      </trkpt>
      <trkpt lat="43.66467" lon="3.84846">
        <ele>68.8</ele>
        <time>2022-05-15T10:04:07Z</time>
      </trkpt>
      <trkpt lat="43.66489" lon="3.84889">
        <ele>69.6</ele>
        <time>2022-05-15T10:04:17Z</time>
      </trkpt>
      <trkpt lat="43.6651" lon="3.84932">
        <ele>70.7</ele>
        <time>2022-05-15T10:04:27Z</time>
      </trkpt>
      <trkpt lat="43.66526" lon="3.84978">
        <ele>72.1</ele>
        <time>2022-05-15T10:04:37Z</time>
      </trkpt>
      <trkpt lat="43.66543" lon="3.85023">
        <ele>73.5</ele>
        <time>2022-05-15T10:04:47Z</time>
      </trkpt>
      <trkpt lat="43.66566" lon="3.85065">
        <ele>74.8</ele>
        <time>2022-05-15T10:04:57Z</time>
      </trkpt>
      <trkpt lat="43.66585" lon="3.85094">
        <ele>76.1</ele>
        <time>2022-05-15T10:05:07Z</time>
      </trkpt>
      <trkpt lat="43.66598" lon="3.85133">
        <ele>76.5</ele>
        <time>2022-05-15T10:05:17Z</time>
      </trkpt>
      <trkpt lat="43.66618" lon="3.85154">
        <ele>77.5</ele>
        <time>2022-05-15T10:05:27Z</time>
      </trkpt>
      <trkpt lat="43.6663" lon="3.85185">
        <ele>78.6</ele>
        <time>2022-05-15T10:05:37Z</time>
      </trkpt>
      <trkpt lat="43.66643" lon="3.85221">
        <ele>79.3</ele>
        <time>2022-05-15T10:05:47Z</time>
      </trkpt>
      <trkpt lat="43.66657" lon="3.85263">
        <ele>79.7</ele>
        <time>2022-05-15T10:05:57Z</time>
      </trkpt>
      <trkpt lat="43.66673" lon="3.85309">
        <ele>80.2</ele>
        <time>2022-05-15T10:06:07Z</time>
      </trkpt>
      <trkpt lat="43.66692" lon="3.85355">
        <ele>80.1</ele>
        <time>2022-05-15T10:06:17Z</time>
      </trkpt>
      <trkpt lat="43.66714" lon="3.85407">
        <ele>80.2</ele>
        <time>2022-05-15T10:06:27Z</time>
      </trkpt>
      <trkpt lat="43.66734" lon="3.85456">
        <ele>79.6</ele>
        <time>2022-05-15T10:06:37Z</time>
      </trkpt>
      <trkpt lat="43.66755" lon="3.85501">
        <ele>77.9</ele>
        <time>2022-05-15T10:06:47Z</time>
      </trkpt>
      <trkpt lat="43.66779" lon="3.85556">
        <ele>77</ele>
        <time>2022-05-15T10:06:57Z</time>
      </trkpt>
      <trkpt lat="43.66763" lon="3.85625">
        <ele>74.5</ele>
        <time>2022-05-15T10:07:07Z</time>
      </trkpt>
      <trkpt lat="43.66741" lon="3.85687">
        <ele>75.2</ele>
        <time>2022-05-15T10:07:17Z</time>
      </trkpt>
      <trkpt lat="43.66729" lon="3.85726">
        <ele>75.8</ele>
        <time>2022-05-15T10:07:27Z</time>
      </trkpt>
      <trkpt lat="43.66733" lon="3.85745">
        <ele>75.6</ele>
        <time>2022-05-15T10:07:37Z</time>
      </trkpt>
      <trkpt lat="43.66736" lon="3.85755">
        <ele>75.5</ele>
        <time>2022-05-15T10:07:47Z</time>
      </trkpt>
      <trkpt lat="43.66731" lon="3.85772">
        <ele>75.7</ele>
        <time>2022-05-15T10:07:57Z</time>
      </trkpt>
      <trkpt lat="43.66729" lon="3.85788">
        <ele>76.3</ele>
        <time>2022-05-15T10:08:07Z</time>
      </trkpt>
    </trkseg>
  </trk>
</gpx>